<?xml version="1.0" encoding="UTF-8"?>
<gpx xmlns="http://www.topografix.com/GPX/1/1" xmlns:gpsies="http://www.gpsies.com/GPX/1/0" creator="GPSies http://www.gpsies.com - Velothon 120km 2010 NEU" version="1.1" xmlns:xsi="http://www.w3.org/2001/XMLSchema-instance" xsi:schemaLocation="http://www.topografix.com/GPX/1/1 http://www.topografix.com/GPX/1/1/gpx.xsd http://www.gpsies.com/GPX/1/0 http://www.gpsies.com/gpsies.xsd">
  <metadata>
    <name>Velothon 120km 2010 NEU</name>
    <copyright author="GPSies.com" />
    <link href="http://www.gpsies.com/map.do?fileId=ymadtrhznjrkompe">
      <text>Velothon 120km 2010 NEU on GPSies.com</text>
    </link>
    <time>2010-04-28T11:53:18Z</time>
    <extensions>
      <gpsies:property>round trip</gpsies:property>
      <gpsies:trackLengthMeter>114448.788857868</gpsies:trackLengthMeter>
      <gpsies:totalAscentMeter>316.0</gpsies:totalAscentMeter>
      <gpsies:totalDescentMeter>318.0</gpsies:totalDescentMeter>
      <gpsies:minHeightMeter>28.0</gpsies:minHeightMeter>
      <gpsies:maxHeightMeter>85.0</gpsies:maxHeightMeter>
    </extensions>
  </metadata>
  <trk>
    <name>Velothon 120km 2010 NEU on GPSies.com</name>
    <link href="http://www.gpsies.com/map.do?fileId=ymadtrhznjrkompe" />
    <trkseg>
      <trkpt lat="52.51606070" lon="13.37780190">
        <ele>36.000000</ele>
        <time>2010-04-28T11:53:18Z</time>
      </trkpt>
      <trkpt lat="52.51558000" lon="13.37748000">
        <ele>36.000000</ele>
        <time>2010-04-28T11:53:39Z</time>
      </trkpt>
      <trkpt lat="52.51462000" lon="13.37744000">
        <ele>34.000000</ele>
        <time>2010-04-28T11:54:17Z</time>
      </trkpt>
      <trkpt lat="52.51451000" lon="13.37742000">
        <ele>33.000000</ele>
        <time>2010-04-28T11:54:22Z</time>
      </trkpt>
      <trkpt lat="52.51437000" lon="13.37730000">
        <ele>33.000000</ele>
        <time>2010-04-28T11:54:28Z</time>
      </trkpt>
      <trkpt lat="52.51346000" lon="13.37712000">
        <ele>32.000000</ele>
        <time>2010-04-28T11:55:05Z</time>
      </trkpt>
      <trkpt lat="52.51299000" lon="13.37705000">
        <ele>37.000000</ele>
        <time>2010-04-28T11:55:23Z</time>
      </trkpt>
      <trkpt lat="52.51221000" lon="13.37703000">
        <ele>32.000000</ele>
        <time>2010-04-28T11:55:55Z</time>
      </trkpt>
      <trkpt lat="52.51009000" lon="13.37656000">
        <ele>34.000000</ele>
        <time>2010-04-28T11:57:20Z</time>
      </trkpt>
      <trkpt lat="52.50960000" lon="13.37652000">
        <ele>34.000000</ele>
        <time>2010-04-28T11:57:40Z</time>
      </trkpt>
      <trkpt lat="52.50934000" lon="13.37326000">
        <ele>54.000000</ele>
        <time>2010-04-28T11:59:00Z</time>
      </trkpt>
      <trkpt lat="52.50917000" lon="13.37092000">
        <ele>37.000000</ele>
        <time>2010-04-28T11:59:57Z</time>
      </trkpt>
      <trkpt lat="52.50903000" lon="13.37054000">
        <ele>37.000000</ele>
        <time>2010-04-28T12:00:08Z</time>
      </trkpt>
      <trkpt lat="52.50863000" lon="13.36971000">
        <ele>35.000000</ele>
        <time>2010-04-28T12:00:34Z</time>
      </trkpt>
      <trkpt lat="52.50842000" lon="13.36948000">
        <ele>34.000000</ele>
        <time>2010-04-28T12:00:44Z</time>
      </trkpt>
      <trkpt lat="52.50792000" lon="13.36918000">
        <ele>34.000000</ele>
        <time>2010-04-28T12:01:06Z</time>
      </trkpt>
      <trkpt lat="52.50631000" lon="13.36834000">
        <ele>34.000000</ele>
        <time>2010-04-28T12:02:13Z</time>
      </trkpt>
      <trkpt lat="52.50633000" lon="13.36749000">
        <ele>34.000000</ele>
        <time>2010-04-28T12:02:34Z</time>
      </trkpt>
      <trkpt lat="52.50623000" lon="13.36538000">
        <ele>38.000000</ele>
        <time>2010-04-28T12:03:25Z</time>
      </trkpt>
      <trkpt lat="52.50617000" lon="13.36456000">
        <ele>36.000000</ele>
        <time>2010-04-28T12:03:46Z</time>
      </trkpt>
      <trkpt lat="52.50593000" lon="13.36319000">
        <ele>36.000000</ele>
        <time>2010-04-28T12:04:20Z</time>
      </trkpt>
      <trkpt lat="52.50591000" lon="13.36271000">
        <ele>35.000000</ele>
        <time>2010-04-28T12:04:32Z</time>
      </trkpt>
      <trkpt lat="52.50594000" lon="13.36214000">
        <ele>35.000000</ele>
        <time>2010-04-28T12:04:46Z</time>
      </trkpt>
      <trkpt lat="52.50608000" lon="13.36112000">
        <ele>40.000000</ele>
        <time>2010-04-28T12:05:11Z</time>
      </trkpt>
      <trkpt lat="52.50621000" lon="13.36052000">
        <ele>40.000000</ele>
        <time>2010-04-28T12:05:27Z</time>
      </trkpt>
      <trkpt lat="52.50650000" lon="13.35939000">
        <ele>33.000000</ele>
        <time>2010-04-28T12:05:57Z</time>
      </trkpt>
      <trkpt lat="52.50706000" lon="13.35763000">
        <ele>33.000000</ele>
        <time>2010-04-28T12:06:45Z</time>
      </trkpt>
      <trkpt lat="52.50712000" lon="13.35722000">
        <ele>34.000000</ele>
        <time>2010-04-28T12:06:55Z</time>
      </trkpt>
      <trkpt lat="52.50716000" lon="13.35646000">
        <ele>33.000000</ele>
        <time>2010-04-28T12:07:14Z</time>
      </trkpt>
      <trkpt lat="52.50710000" lon="13.35543000">
        <ele>33.000000</ele>
        <time>2010-04-28T12:07:39Z</time>
      </trkpt>
      <trkpt lat="52.50697000" lon="13.35470000">
        <ele>35.000000</ele>
        <time>2010-04-28T12:07:58Z</time>
      </trkpt>
      <trkpt lat="52.50654000" lon="13.35290000">
        <ele>36.000000</ele>
        <time>2010-04-28T12:08:45Z</time>
      </trkpt>
      <trkpt lat="52.50630000" lon="13.35194000">
        <ele>38.000000</ele>
        <time>2010-04-28T12:09:10Z</time>
      </trkpt>
      <trkpt lat="52.50581000" lon="13.35188000">
        <ele>36.000000</ele>
        <time>2010-04-28T12:09:30Z</time>
      </trkpt>
      <trkpt lat="52.50550000" lon="13.35178000">
        <ele>36.000000</ele>
        <time>2010-04-28T12:09:43Z</time>
      </trkpt>
      <trkpt lat="52.50510000" lon="13.35153000">
        <ele>36.000000</ele>
        <time>2010-04-28T12:10:00Z</time>
      </trkpt>
      <trkpt lat="52.50459000" lon="13.35113000">
        <ele>38.000000</ele>
        <time>2010-04-28T12:10:22Z</time>
      </trkpt>
      <trkpt lat="52.50376000" lon="13.35046000">
        <ele>41.000000</ele>
        <time>2010-04-28T12:10:59Z</time>
      </trkpt>
      <trkpt lat="52.50329820" lon="13.34990140">
        <ele>42.000000</ele>
        <time>2010-04-28T12:11:22Z</time>
      </trkpt>
      <trkpt lat="52.50329170" lon="13.34962240">
        <ele>42.000000</ele>
        <time>2010-04-28T12:11:29Z</time>
      </trkpt>
      <trkpt lat="52.50369660" lon="13.34777710">
        <ele>43.000000</ele>
        <time>2010-04-28T12:12:17Z</time>
      </trkpt>
      <trkpt lat="52.50402320" lon="13.34603900">
        <ele>42.000000</ele>
        <time>2010-04-28T12:13:01Z</time>
      </trkpt>
      <trkpt lat="52.50515290" lon="13.34135050">
        <ele>46.000000</ele>
        <time>2010-04-28T12:15:04Z</time>
      </trkpt>
      <trkpt lat="52.50529660" lon="13.34085700">
        <ele>48.000000</ele>
        <time>2010-04-28T12:15:17Z</time>
      </trkpt>
      <trkpt lat="52.50538800" lon="13.34027760">
        <ele>43.000000</ele>
        <time>2010-04-28T12:15:32Z</time>
      </trkpt>
      <trkpt lat="52.50540110" lon="13.33969830">
        <ele>43.000000</ele>
        <time>2010-04-28T12:15:46Z</time>
      </trkpt>
      <trkpt lat="52.50536190" lon="13.33910820">
        <ele>38.000000</ele>
        <time>2010-04-28T12:16:01Z</time>
      </trkpt>
      <trkpt lat="52.50519870" lon="13.33814260">
        <ele>38.000000</ele>
        <time>2010-04-28T12:16:25Z</time>
      </trkpt>
      <trkpt lat="52.50519870" lon="13.33717700">
        <ele>41.000000</ele>
        <time>2010-04-28T12:16:48Z</time>
      </trkpt>
      <trkpt lat="52.50528360" lon="13.33626500">
        <ele>41.000000</ele>
        <time>2010-04-28T12:17:11Z</time>
      </trkpt>
      <trkpt lat="52.50549910" lon="13.33413000">
        <ele>46.000000</ele>
        <time>2010-04-28T12:18:04Z</time>
      </trkpt>
      <trkpt lat="52.50621000" lon="13.33257000">
        <ele>46.000000</ele>
        <time>2010-04-28T12:18:51Z</time>
      </trkpt>
      <trkpt lat="52.50740000" lon="13.33007000">
        <ele>39.000000</ele>
        <time>2010-04-28T12:20:09Z</time>
      </trkpt>
      <trkpt lat="52.50847000" lon="13.32764000">
        <ele>35.000000</ele>
        <time>2010-04-28T12:21:22Z</time>
      </trkpt>
      <trkpt lat="52.50932000" lon="13.32587000">
        <ele>40.000000</ele>
        <time>2010-04-28T12:22:17Z</time>
      </trkpt>
      <trkpt lat="52.51148000" lon="13.32286000">
        <ele>35.000000</ele>
        <time>2010-04-28T12:24:10Z</time>
      </trkpt>
      <trkpt lat="52.51182000" lon="13.32252000">
        <ele>35.000000</ele>
        <time>2010-04-28T12:24:26Z</time>
      </trkpt>
      <trkpt lat="52.51205000" lon="13.32243000">
        <ele>35.000000</ele>
        <time>2010-04-28T12:24:35Z</time>
      </trkpt>
      <trkpt lat="52.51224000" lon="13.32281000">
        <ele>40.000000</ele>
        <time>2010-04-28T12:24:47Z</time>
      </trkpt>
      <trkpt lat="52.51253000" lon="13.32300000">
        <ele>38.000000</ele>
        <time>2010-04-28T12:25:00Z</time>
      </trkpt>
      <trkpt lat="52.51286000" lon="13.32293000">
        <ele>38.000000</ele>
        <time>2010-04-28T12:25:13Z</time>
      </trkpt>
      <trkpt lat="52.51307000" lon="13.32269000">
        <ele>40.000000</ele>
        <time>2010-04-28T12:25:23Z</time>
      </trkpt>
      <trkpt lat="52.51313000" lon="13.32257000">
        <ele>40.000000</ele>
        <time>2010-04-28T12:25:27Z</time>
      </trkpt>
      <trkpt lat="52.51322000" lon="13.32217000">
        <ele>40.000000</ele>
        <time>2010-04-28T12:25:38Z</time>
      </trkpt>
      <trkpt lat="52.51320000" lon="13.32160000">
        <ele>39.000000</ele>
        <time>2010-04-28T12:25:51Z</time>
      </trkpt>
      <trkpt lat="52.51316000" lon="13.32145000">
        <ele>39.000000</ele>
        <time>2010-04-28T12:25:55Z</time>
      </trkpt>
      <trkpt lat="52.51344000" lon="13.32078000">
        <ele>43.000000</ele>
        <time>2010-04-28T12:26:15Z</time>
      </trkpt>
      <trkpt lat="52.51358000" lon="13.32034000">
        <ele>39.000000</ele>
        <time>2010-04-28T12:26:27Z</time>
      </trkpt>
      <trkpt lat="52.51369000" lon="13.31982000">
        <ele>39.000000</ele>
        <time>2010-04-28T12:26:41Z</time>
      </trkpt>
      <trkpt lat="52.51393000" lon="13.31803000">
        <ele>39.000000</ele>
        <time>2010-04-28T12:27:25Z</time>
      </trkpt>
      <trkpt lat="52.51407000" lon="13.31741000">
        <ele>41.000000</ele>
        <time>2010-04-28T12:27:41Z</time>
      </trkpt>
      <trkpt lat="52.51515000" lon="13.31394000">
        <ele>36.000000</ele>
        <time>2010-04-28T12:29:16Z</time>
      </trkpt>
      <trkpt lat="52.51753000" lon="13.30657000">
        <ele>42.000000</ele>
        <time>2010-04-28T12:32:40Z</time>
      </trkpt>
      <trkpt lat="52.51942000" lon="13.30054000">
        <ele>38.000000</ele>
        <time>2010-04-28T12:35:25Z</time>
      </trkpt>
      <trkpt lat="52.51967000" lon="13.29965000">
        <ele>36.000000</ele>
        <time>2010-04-28T12:35:49Z</time>
      </trkpt>
      <trkpt lat="52.51969000" lon="13.29947000">
        <ele>35.000000</ele>
        <time>2010-04-28T12:35:53Z</time>
      </trkpt>
      <trkpt lat="52.51925000" lon="13.29237000">
        <ele>32.000000</ele>
        <time>2010-04-28T12:38:47Z</time>
      </trkpt>
      <trkpt lat="52.51914000" lon="13.29103000">
        <ele>39.000000</ele>
        <time>2010-04-28T12:39:20Z</time>
      </trkpt>
      <trkpt lat="52.51907000" lon="13.29092000">
        <ele>39.000000</ele>
        <time>2010-04-28T12:39:24Z</time>
      </trkpt>
      <trkpt lat="52.51898000" lon="13.29008000">
        <ele>40.000000</ele>
        <time>2010-04-28T12:39:45Z</time>
      </trkpt>
      <trkpt lat="52.51884000" lon="13.28790000">
        <ele>37.000000</ele>
        <time>2010-04-28T12:40:38Z</time>
      </trkpt>
      <trkpt lat="52.51870000" lon="13.28511000">
        <ele>37.000000</ele>
        <time>2010-04-28T12:41:46Z</time>
      </trkpt>
      <trkpt lat="52.51874000" lon="13.28498000">
        <ele>37.000000</ele>
        <time>2010-04-28T12:41:50Z</time>
      </trkpt>
      <trkpt lat="52.51847000" lon="13.28005000">
        <ele>52.000000</ele>
        <time>2010-04-28T12:43:50Z</time>
      </trkpt>
      <trkpt lat="52.51837000" lon="13.27900000">
        <ele>55.000000</ele>
        <time>2010-04-28T12:44:16Z</time>
      </trkpt>
      <trkpt lat="52.51849000" lon="13.27809000">
        <ele>56.000000</ele>
        <time>2010-04-28T12:44:39Z</time>
      </trkpt>
      <trkpt lat="52.51889000" lon="13.27586000">
        <ele>58.000000</ele>
        <time>2010-04-28T12:45:36Z</time>
      </trkpt>
      <trkpt lat="52.51946000" lon="13.27294000">
        <ele>58.000000</ele>
        <time>2010-04-28T12:46:50Z</time>
      </trkpt>
      <trkpt lat="52.52104000" lon="13.26427000">
        <ele>61.000000</ele>
        <time>2010-04-28T12:50:31Z</time>
      </trkpt>
      <trkpt lat="52.52290000" lon="13.25389000">
        <ele>50.000000</ele>
        <time>2010-04-28T12:54:54Z</time>
      </trkpt>
      <trkpt lat="52.52363000" lon="13.25077000">
        <ele>51.000000</ele>
        <time>2010-04-28T12:56:16Z</time>
      </trkpt>
      <trkpt lat="52.52464000" lon="13.24713000">
        <ele>38.000000</ele>
        <time>2010-04-28T12:57:53Z</time>
      </trkpt>
      <trkpt lat="52.52502000" lon="13.24521000">
        <ele>36.000000</ele>
        <time>2010-04-28T12:58:42Z</time>
      </trkpt>
      <trkpt lat="52.52532000" lon="13.24402000">
        <ele>36.000000</ele>
        <time>2010-04-28T12:59:14Z</time>
      </trkpt>
      <trkpt lat="52.52579000" lon="13.24246000">
        <ele>33.000000</ele>
        <time>2010-04-28T12:59:56Z</time>
      </trkpt>
      <trkpt lat="52.52609000" lon="13.24131000">
        <ele>36.000000</ele>
        <time>2010-04-28T13:00:27Z</time>
      </trkpt>
      <trkpt lat="52.52650000" lon="13.23956000">
        <ele>32.000000</ele>
        <time>2010-04-28T13:01:12Z</time>
      </trkpt>
      <trkpt lat="52.52678000" lon="13.23818000">
        <ele>31.000000</ele>
        <time>2010-04-28T13:01:48Z</time>
      </trkpt>
      <trkpt lat="52.52878000" lon="13.22606000">
        <ele>31.000000</ele>
        <time>2010-04-28T13:06:53Z</time>
      </trkpt>
      <trkpt lat="52.52887000" lon="13.22529000">
        <ele>31.000000</ele>
        <time>2010-04-28T13:07:13Z</time>
      </trkpt>
      <trkpt lat="52.52892000" lon="13.22302000">
        <ele>33.000000</ele>
        <time>2010-04-28T13:08:08Z</time>
      </trkpt>
      <trkpt lat="52.52885000" lon="13.22239000">
        <ele>35.000000</ele>
        <time>2010-04-28T13:08:23Z</time>
      </trkpt>
      <trkpt lat="52.52870000" lon="13.22160000">
        <ele>33.000000</ele>
        <time>2010-04-28T13:08:44Z</time>
      </trkpt>
      <trkpt lat="52.52850000" lon="13.22074000">
        <ele>33.000000</ele>
        <time>2010-04-28T13:09:06Z</time>
      </trkpt>
      <trkpt lat="52.52822000" lon="13.21984000">
        <ele>31.000000</ele>
        <time>2010-04-28T13:09:31Z</time>
      </trkpt>
      <trkpt lat="52.52808000" lon="13.21943000">
        <ele>30.000000</ele>
        <time>2010-04-28T13:09:42Z</time>
      </trkpt>
      <trkpt lat="52.52740000" lon="13.21779000">
        <ele>34.000000</ele>
        <time>2010-04-28T13:10:30Z</time>
      </trkpt>
      <trkpt lat="52.52725000" lon="13.21735000">
        <ele>34.000000</ele>
        <time>2010-04-28T13:10:43Z</time>
      </trkpt>
      <trkpt lat="52.52709000" lon="13.21671000">
        <ele>33.000000</ele>
        <time>2010-04-28T13:11:00Z</time>
      </trkpt>
      <trkpt lat="52.52700000" lon="13.21611000">
        <ele>35.000000</ele>
        <time>2010-04-28T13:11:15Z</time>
      </trkpt>
      <trkpt lat="52.52695300" lon="13.21570510">
        <ele>35.000000</ele>
        <time>2010-04-28T13:11:25Z</time>
      </trkpt>
      <trkpt lat="52.52677680" lon="13.21575880">
        <ele>35.000000</ele>
        <time>2010-04-28T13:11:32Z</time>
      </trkpt>
      <trkpt lat="52.52660050" lon="13.21590900">
        <ele>35.000000</ele>
        <time>2010-04-28T13:11:40Z</time>
      </trkpt>
      <trkpt lat="52.52637860" lon="13.21631660">
        <ele>34.000000</ele>
        <time>2010-04-28T13:11:53Z</time>
      </trkpt>
      <trkpt lat="52.52620240" lon="13.21675650">
        <ele>34.000000</ele>
        <time>2010-04-28T13:12:06Z</time>
      </trkpt>
      <trkpt lat="52.52613710" lon="13.21705690">
        <ele>34.000000</ele>
        <time>2010-04-28T13:12:14Z</time>
      </trkpt>
      <trkpt lat="52.52545000" lon="13.21827000">
        <ele>37.000000</ele>
        <time>2010-04-28T13:12:54Z</time>
      </trkpt>
      <trkpt lat="52.52518000" lon="13.21862000">
        <ele>37.000000</ele>
        <time>2010-04-28T13:13:08Z</time>
      </trkpt>
      <trkpt lat="52.52482000" lon="13.21886000">
        <ele>34.000000</ele>
        <time>2010-04-28T13:13:23Z</time>
      </trkpt>
      <trkpt lat="52.52441000" lon="13.21887000">
        <ele>33.000000</ele>
        <time>2010-04-28T13:13:40Z</time>
      </trkpt>
      <trkpt lat="52.52147000" lon="13.21840000">
        <ele>35.000000</ele>
        <time>2010-04-28T13:15:38Z</time>
      </trkpt>
      <trkpt lat="52.52033000" lon="13.21827000">
        <ele>37.000000</ele>
        <time>2010-04-28T13:16:24Z</time>
      </trkpt>
      <trkpt lat="52.51660000" lon="13.21859000">
        <ele>37.000000</ele>
        <time>2010-04-28T13:18:53Z</time>
      </trkpt>
      <trkpt lat="52.51447000" lon="13.21947000">
        <ele>39.000000</ele>
        <time>2010-04-28T13:20:21Z</time>
      </trkpt>
      <trkpt lat="52.51405000" lon="13.21955000">
        <ele>39.000000</ele>
        <time>2010-04-28T13:20:38Z</time>
      </trkpt>
      <trkpt lat="52.51355000" lon="13.21918000">
        <ele>44.000000</ele>
        <time>2010-04-28T13:21:00Z</time>
      </trkpt>
      <trkpt lat="52.51140000" lon="13.21701000">
        <ele>34.000000</ele>
        <time>2010-04-28T13:22:41Z</time>
      </trkpt>
      <trkpt lat="52.51026000" lon="13.21655000">
        <ele>41.000000</ele>
        <time>2010-04-28T13:23:28Z</time>
      </trkpt>
      <trkpt lat="52.50992000" lon="13.21631000">
        <ele>41.000000</ele>
        <time>2010-04-28T13:23:43Z</time>
      </trkpt>
      <trkpt lat="52.50970000" lon="13.21604000">
        <ele>35.000000</ele>
        <time>2010-04-28T13:23:54Z</time>
      </trkpt>
      <trkpt lat="52.50896000" lon="13.21474000">
        <ele>43.000000</ele>
        <time>2010-04-28T13:24:37Z</time>
      </trkpt>
      <trkpt lat="52.50869000" lon="13.21434000">
        <ele>45.000000</ele>
        <time>2010-04-28T13:24:52Z</time>
      </trkpt>
      <trkpt lat="52.50831000" lon="13.21388000">
        <ele>45.000000</ele>
        <time>2010-04-28T13:25:11Z</time>
      </trkpt>
      <trkpt lat="52.50812000" lon="13.21375000">
        <ele>34.000000</ele>
        <time>2010-04-28T13:25:19Z</time>
      </trkpt>
      <trkpt lat="52.50683000" lon="13.21315000">
        <ele>47.000000</ele>
        <time>2010-04-28T13:26:13Z</time>
      </trkpt>
      <trkpt lat="52.50654000" lon="13.21291000">
        <ele>33.000000</ele>
        <time>2010-04-28T13:26:26Z</time>
      </trkpt>
      <trkpt lat="52.50602000" lon="13.21218000">
        <ele>47.000000</ele>
        <time>2010-04-28T13:26:53Z</time>
      </trkpt>
      <trkpt lat="52.50573000" lon="13.21195000">
        <ele>35.000000</ele>
        <time>2010-04-28T13:27:06Z</time>
      </trkpt>
      <trkpt lat="52.50533000" lon="13.21178000">
        <ele>42.000000</ele>
        <time>2010-04-28T13:27:22Z</time>
      </trkpt>
      <trkpt lat="52.50454000" lon="13.21165000">
        <ele>38.000000</ele>
        <time>2010-04-28T13:27:54Z</time>
      </trkpt>
      <trkpt lat="52.50282000" lon="13.21188000">
        <ele>36.000000</ele>
        <time>2010-04-28T13:29:03Z</time>
      </trkpt>
      <trkpt lat="52.50256000" lon="13.21185000">
        <ele>36.000000</ele>
        <time>2010-04-28T13:29:14Z</time>
      </trkpt>
      <trkpt lat="52.50202000" lon="13.21157000">
        <ele>51.000000</ele>
        <time>2010-04-28T13:29:36Z</time>
      </trkpt>
      <trkpt lat="52.50096000" lon="13.20998000">
        <ele>38.000000</ele>
        <time>2010-04-28T13:30:34Z</time>
      </trkpt>
      <trkpt lat="52.50047000" lon="13.20906000">
        <ele>37.000000</ele>
        <time>2010-04-28T13:31:04Z</time>
      </trkpt>
      <trkpt lat="52.49958000" lon="13.20714000">
        <ele>55.000000</ele>
        <time>2010-04-28T13:32:02Z</time>
      </trkpt>
      <trkpt lat="52.49905000" lon="13.20610000">
        <ele>41.000000</ele>
        <time>2010-04-28T13:32:35Z</time>
      </trkpt>
      <trkpt lat="52.49806000" lon="13.20491000">
        <ele>44.000000</ele>
        <time>2010-04-28T13:33:25Z</time>
      </trkpt>
      <trkpt lat="52.49768000" lon="13.20438000">
        <ele>47.000000</ele>
        <time>2010-04-28T13:33:45Z</time>
      </trkpt>
      <trkpt lat="52.49734000" lon="13.20374000">
        <ele>38.000000</ele>
        <time>2010-04-28T13:34:05Z</time>
      </trkpt>
      <trkpt lat="52.49602000" lon="13.20080000">
        <ele>52.000000</ele>
        <time>2010-04-28T13:35:34Z</time>
      </trkpt>
      <trkpt lat="52.49572000" lon="13.20029000">
        <ele>43.000000</ele>
        <time>2010-04-28T13:35:52Z</time>
      </trkpt>
      <trkpt lat="52.49544000" lon="13.19995000">
        <ele>43.000000</ele>
        <time>2010-04-28T13:36:06Z</time>
      </trkpt>
      <trkpt lat="52.49525000" lon="13.19987000">
        <ele>50.000000</ele>
        <time>2010-04-28T13:36:13Z</time>
      </trkpt>
      <trkpt lat="52.49514000" lon="13.19986000">
        <ele>50.000000</ele>
        <time>2010-04-28T13:36:18Z</time>
      </trkpt>
      <trkpt lat="52.49490000" lon="13.19996000">
        <ele>50.000000</ele>
        <time>2010-04-28T13:36:28Z</time>
      </trkpt>
      <trkpt lat="52.49464000" lon="13.20014000">
        <ele>50.000000</ele>
        <time>2010-04-28T13:36:39Z</time>
      </trkpt>
      <trkpt lat="52.49426000" lon="13.20053000">
        <ele>57.000000</ele>
        <time>2010-04-28T13:36:57Z</time>
      </trkpt>
      <trkpt lat="52.49372000" lon="13.20123000">
        <ele>56.000000</ele>
        <time>2010-04-28T13:37:24Z</time>
      </trkpt>
      <trkpt lat="52.49245000" lon="13.20350000">
        <ele>63.000000</ele>
        <time>2010-04-28T13:38:40Z</time>
      </trkpt>
      <trkpt lat="52.49213000" lon="13.20382000">
        <ele>69.000000</ele>
        <time>2010-04-28T13:38:55Z</time>
      </trkpt>
      <trkpt lat="52.48930000" lon="13.20495000">
        <ele>71.000000</ele>
        <time>2010-04-28T13:40:51Z</time>
      </trkpt>
      <trkpt lat="52.48917000" lon="13.20493000">
        <ele>71.000000</ele>
        <time>2010-04-28T13:40:56Z</time>
      </trkpt>
      <trkpt lat="52.48896000" lon="13.20477000">
        <ele>71.000000</ele>
        <time>2010-04-28T13:41:06Z</time>
      </trkpt>
      <trkpt lat="52.48847000" lon="13.20418000">
        <ele>70.000000</ele>
        <time>2010-04-28T13:41:30Z</time>
      </trkpt>
      <trkpt lat="52.48590000" lon="13.20074000">
        <ele>64.000000</ele>
        <time>2010-04-28T13:43:43Z</time>
      </trkpt>
      <trkpt lat="52.48572000" lon="13.20043000">
        <ele>64.000000</ele>
        <time>2010-04-28T13:43:53Z</time>
      </trkpt>
      <trkpt lat="52.48559000" lon="13.20005000">
        <ele>62.000000</ele>
        <time>2010-04-28T13:44:04Z</time>
      </trkpt>
      <trkpt lat="52.48533000" lon="13.19764000">
        <ele>59.000000</ele>
        <time>2010-04-28T13:45:03Z</time>
      </trkpt>
      <trkpt lat="52.48522000" lon="13.19729000">
        <ele>59.000000</ele>
        <time>2010-04-28T13:45:13Z</time>
      </trkpt>
      <trkpt lat="52.48507000" lon="13.19701000">
        <ele>61.000000</ele>
        <time>2010-04-28T13:45:22Z</time>
      </trkpt>
      <trkpt lat="52.48488000" lon="13.19684000">
        <ele>61.000000</ele>
        <time>2010-04-28T13:45:31Z</time>
      </trkpt>
      <trkpt lat="52.48467000" lon="13.19677000">
        <ele>61.000000</ele>
        <time>2010-04-28T13:45:39Z</time>
      </trkpt>
      <trkpt lat="52.48274000" lon="13.19693000">
        <ele>71.000000</ele>
        <time>2010-04-28T13:46:57Z</time>
      </trkpt>
      <trkpt lat="52.48045000" lon="13.19734000">
        <ele>77.000000</ele>
        <time>2010-04-28T13:48:29Z</time>
      </trkpt>
      <trkpt lat="52.47918000" lon="13.19766000">
        <ele>84.000000</ele>
        <time>2010-04-28T13:49:20Z</time>
      </trkpt>
      <trkpt lat="52.47784000" lon="13.19828000">
        <ele>85.000000</ele>
        <time>2010-04-28T13:50:16Z</time>
      </trkpt>
      <trkpt lat="52.47708000" lon="13.19852000">
        <ele>82.000000</ele>
        <time>2010-04-28T13:50:47Z</time>
      </trkpt>
      <trkpt lat="52.47091000" lon="13.20009000">
        <ele>49.000000</ele>
        <time>2010-04-28T13:54:57Z</time>
      </trkpt>
      <trkpt lat="52.46980000" lon="13.20037000">
        <ele>40.000000</ele>
        <time>2010-04-28T13:55:42Z</time>
      </trkpt>
      <trkpt lat="52.46951000" lon="13.20032000">
        <ele>47.000000</ele>
        <time>2010-04-28T13:55:54Z</time>
      </trkpt>
      <trkpt lat="52.46935000" lon="13.20016000">
        <ele>47.000000</ele>
        <time>2010-04-28T13:56:01Z</time>
      </trkpt>
      <trkpt lat="52.46917000" lon="13.19957000">
        <ele>42.000000</ele>
        <time>2010-04-28T13:56:17Z</time>
      </trkpt>
      <trkpt lat="52.46904000" lon="13.19793000">
        <ele>38.000000</ele>
        <time>2010-04-28T13:56:58Z</time>
      </trkpt>
      <trkpt lat="52.46891000" lon="13.19752000">
        <ele>36.000000</ele>
        <time>2010-04-28T13:57:09Z</time>
      </trkpt>
      <trkpt lat="52.46866000" lon="13.19708000">
        <ele>40.000000</ele>
        <time>2010-04-28T13:57:24Z</time>
      </trkpt>
      <trkpt lat="52.46848000" lon="13.19685000">
        <ele>40.000000</ele>
        <time>2010-04-28T13:57:33Z</time>
      </trkpt>
      <trkpt lat="52.46814000" lon="13.19667000">
        <ele>40.000000</ele>
        <time>2010-04-28T13:57:47Z</time>
      </trkpt>
      <trkpt lat="52.46580000" lon="13.19658000">
        <ele>47.000000</ele>
        <time>2010-04-28T13:59:21Z</time>
      </trkpt>
      <trkpt lat="52.46547000" lon="13.19642000">
        <ele>47.000000</ele>
        <time>2010-04-28T13:59:34Z</time>
      </trkpt>
      <trkpt lat="52.46490000" lon="13.19572000">
        <ele>46.000000</ele>
        <time>2010-04-28T14:00:03Z</time>
      </trkpt>
      <trkpt lat="52.46455000" lon="13.19508000">
        <ele>55.000000</ele>
        <time>2010-04-28T14:00:24Z</time>
      </trkpt>
      <trkpt lat="52.46348000" lon="13.19256000">
        <ele>49.000000</ele>
        <time>2010-04-28T14:01:39Z</time>
      </trkpt>
      <trkpt lat="52.46298000" lon="13.19178000">
        <ele>41.000000</ele>
        <time>2010-04-28T14:02:06Z</time>
      </trkpt>
      <trkpt lat="52.46253000" lon="13.19142000">
        <ele>48.000000</ele>
        <time>2010-04-28T14:02:26Z</time>
      </trkpt>
      <trkpt lat="52.46183000" lon="13.19118000">
        <ele>39.000000</ele>
        <time>2010-04-28T14:02:55Z</time>
      </trkpt>
      <trkpt lat="52.45959000" lon="13.19060000">
        <ele>45.000000</ele>
        <time>2010-04-28T14:04:26Z</time>
      </trkpt>
      <trkpt lat="52.45887000" lon="13.19031000">
        <ele>32.000000</ele>
        <time>2010-04-28T14:04:56Z</time>
      </trkpt>
      <trkpt lat="52.45761000" lon="13.18967000">
        <ele>47.000000</ele>
        <time>2010-04-28T14:05:48Z</time>
      </trkpt>
      <trkpt lat="52.45628000" lon="13.18919000">
        <ele>41.000000</ele>
        <time>2010-04-28T14:06:43Z</time>
      </trkpt>
      <trkpt lat="52.45562000" lon="13.18921000">
        <ele>44.000000</ele>
        <time>2010-04-28T14:07:09Z</time>
      </trkpt>
      <trkpt lat="52.45518000" lon="13.18946000">
        <ele>39.000000</ele>
        <time>2010-04-28T14:07:28Z</time>
      </trkpt>
      <trkpt lat="52.45489000" lon="13.18987000">
        <ele>44.000000</ele>
        <time>2010-04-28T14:07:43Z</time>
      </trkpt>
      <trkpt lat="52.45437000" lon="13.19074000">
        <ele>41.000000</ele>
        <time>2010-04-28T14:08:13Z</time>
      </trkpt>
      <trkpt lat="52.45417000" lon="13.19092000">
        <ele>41.000000</ele>
        <time>2010-04-28T14:08:22Z</time>
      </trkpt>
      <trkpt lat="52.45168000" lon="13.19259000">
        <ele>49.000000</ele>
        <time>2010-04-28T14:10:10Z</time>
      </trkpt>
      <trkpt lat="52.45136000" lon="13.19285000">
        <ele>49.000000</ele>
        <time>2010-04-28T14:10:24Z</time>
      </trkpt>
      <trkpt lat="52.45095000" lon="13.19327000">
        <ele>58.000000</ele>
        <time>2010-04-28T14:10:43Z</time>
      </trkpt>
      <trkpt lat="52.44943000" lon="13.19539000">
        <ele>63.000000</ele>
        <time>2010-04-28T14:12:03Z</time>
      </trkpt>
      <trkpt lat="52.44895000" lon="13.19586000">
        <ele>61.000000</ele>
        <time>2010-04-28T14:12:26Z</time>
      </trkpt>
      <trkpt lat="52.44822000" lon="13.19638000">
        <ele>61.000000</ele>
        <time>2010-04-28T14:12:57Z</time>
      </trkpt>
      <trkpt lat="52.44164000" lon="13.20005000">
        <ele>57.000000</ele>
        <time>2010-04-28T14:17:36Z</time>
      </trkpt>
      <trkpt lat="52.44117900" lon="13.20030920">
        <ele>53.000000</ele>
        <time>2010-04-28T14:17:55Z</time>
      </trkpt>
      <trkpt lat="52.44439660" lon="13.20428960">
        <ele>54.000000</ele>
        <time>2010-04-28T14:20:37Z</time>
      </trkpt>
      <trkpt lat="52.45538820" lon="13.21811910">
        <ele>61.000000</ele>
        <time>2010-04-28T14:29:51Z</time>
      </trkpt>
      <trkpt lat="52.46746870" lon="13.23342910">
        <ele>62.000000</ele>
        <time>2010-04-28T14:40:02Z</time>
      </trkpt>
      <trkpt lat="52.46747000" lon="13.23343000">
        <ele>62.000000</ele>
        <time>2010-04-28T14:40:02Z</time>
      </trkpt>
      <trkpt lat="52.46949000" lon="13.23599000">
        <ele>55.000000</ele>
        <time>2010-04-28T14:41:44Z</time>
      </trkpt>
      <trkpt lat="52.46750000" lon="13.24756000">
        <ele>54.000000</ele>
        <time>2010-04-28T14:46:37Z</time>
      </trkpt>
      <trkpt lat="52.46737000" lon="13.24747000">
        <ele>54.000000</ele>
        <time>2010-04-28T14:46:43Z</time>
      </trkpt>
      <trkpt lat="52.46673000" lon="13.24746000">
        <ele>55.000000</ele>
        <time>2010-04-28T14:47:09Z</time>
      </trkpt>
      <trkpt lat="52.46146000" lon="13.24734000">
        <ele>54.000000</ele>
        <time>2010-04-28T14:50:40Z</time>
      </trkpt>
      <trkpt lat="52.46099000" lon="13.24742000">
        <ele>54.000000</ele>
        <time>2010-04-28T14:50:59Z</time>
      </trkpt>
      <trkpt lat="52.46038000" lon="13.24766000">
        <ele>56.000000</ele>
        <time>2010-04-28T14:51:24Z</time>
      </trkpt>
      <trkpt lat="52.45902000" lon="13.24859000">
        <ele>54.000000</ele>
        <time>2010-04-28T14:52:23Z</time>
      </trkpt>
      <trkpt lat="52.45850000" lon="13.24911000">
        <ele>50.000000</ele>
        <time>2010-04-28T14:52:47Z</time>
      </trkpt>
      <trkpt lat="52.45804000" lon="13.24971000">
        <ele>48.000000</ele>
        <time>2010-04-28T14:53:10Z</time>
      </trkpt>
      <trkpt lat="52.45792000" lon="13.24983000">
        <ele>48.000000</ele>
        <time>2010-04-28T14:53:16Z</time>
      </trkpt>
      <trkpt lat="52.45767000" lon="13.24996000">
        <ele>43.000000</ele>
        <time>2010-04-28T14:53:27Z</time>
      </trkpt>
      <trkpt lat="52.45160000" lon="13.25059000">
        <ele>53.000000</ele>
        <time>2010-04-28T14:57:30Z</time>
      </trkpt>
      <trkpt lat="52.45110000" lon="13.25069000">
        <ele>52.000000</ele>
        <time>2010-04-28T14:57:50Z</time>
      </trkpt>
      <trkpt lat="52.45012000" lon="13.25107000">
        <ele>50.000000</ele>
        <time>2010-04-28T14:58:31Z</time>
      </trkpt>
      <trkpt lat="52.45049760" lon="13.25232260">
        <ele>53.000000</ele>
        <time>2010-04-28T14:59:05Z</time>
      </trkpt>
      <trkpt lat="52.45094220" lon="13.25398560">
        <ele>50.000000</ele>
        <time>2010-04-28T14:59:49Z</time>
      </trkpt>
      <trkpt lat="52.45132150" lon="13.25616350">
        <ele>53.000000</ele>
        <time>2010-04-28T15:00:44Z</time>
      </trkpt>
      <trkpt lat="52.45155690" lon="13.25848100">
        <ele>52.000000</ele>
        <time>2010-04-28T15:01:42Z</time>
      </trkpt>
      <trkpt lat="52.45158300" lon="13.26069110">
        <ele>50.000000</ele>
        <time>2010-04-28T15:02:35Z</time>
      </trkpt>
      <trkpt lat="52.45153720" lon="13.26259010">
        <ele>48.000000</ele>
        <time>2010-04-28T15:03:22Z</time>
      </trkpt>
      <trkpt lat="52.45105340" lon="13.27043290">
        <ele>47.000000</ele>
        <time>2010-04-28T15:06:34Z</time>
      </trkpt>
      <trkpt lat="52.45081800" lon="13.27335110">
        <ele>54.000000</ele>
        <time>2010-04-28T15:07:46Z</time>
      </trkpt>
      <trkpt lat="52.45059570" lon="13.27624790">
        <ele>51.000000</ele>
        <time>2010-04-28T15:08:57Z</time>
      </trkpt>
      <trkpt lat="52.45049760" lon="13.27724570">
        <ele>51.000000</ele>
        <time>2010-04-28T15:09:22Z</time>
      </trkpt>
      <trkpt lat="52.45041910" lon="13.27850100">
        <ele>52.000000</ele>
        <time>2010-04-28T15:09:53Z</time>
      </trkpt>
      <trkpt lat="52.45039300" lon="13.27903740">
        <ele>50.000000</ele>
        <time>2010-04-28T15:10:06Z</time>
      </trkpt>
      <trkpt lat="52.45049760" lon="13.27968120">
        <ele>53.000000</ele>
        <time>2010-04-28T15:10:22Z</time>
      </trkpt>
      <trkpt lat="52.45065450" lon="13.28036780">
        <ele>53.000000</ele>
        <time>2010-04-28T15:10:40Z</time>
      </trkpt>
      <trkpt lat="52.45115800" lon="13.28147290">
        <ele>51.000000</ele>
        <time>2010-04-28T15:11:14Z</time>
      </trkpt>
      <trkpt lat="52.45197530" lon="13.28355430">
        <ele>52.000000</ele>
        <time>2010-04-28T15:12:14Z</time>
      </trkpt>
      <trkpt lat="52.45240680" lon="13.28450910">
        <ele>52.000000</ele>
        <time>2010-04-28T15:12:43Z</time>
      </trkpt>
      <trkpt lat="52.45267490" lon="13.28500270">
        <ele>51.000000</ele>
        <time>2010-04-28T15:12:59Z</time>
      </trkpt>
      <trkpt lat="52.45326170" lon="13.28572150">
        <ele>52.000000</ele>
        <time>2010-04-28T15:13:28Z</time>
      </trkpt>
      <trkpt lat="52.45325360" lon="13.28577780">
        <ele>52.000000</ele>
        <time>2010-04-28T15:13:30Z</time>
      </trkpt>
      <trkpt lat="52.45274000" lon="13.28635000">
        <ele>52.000000</ele>
        <time>2010-04-28T15:13:55Z</time>
      </trkpt>
      <trkpt lat="52.45251000" lon="13.28653000">
        <ele>52.000000</ele>
        <time>2010-04-28T15:14:05Z</time>
      </trkpt>
      <trkpt lat="52.45225000" lon="13.28666000">
        <ele>52.000000</ele>
        <time>2010-04-28T15:14:16Z</time>
      </trkpt>
      <trkpt lat="52.45166000" lon="13.28682000">
        <ele>53.000000</ele>
        <time>2010-04-28T15:14:40Z</time>
      </trkpt>
      <trkpt lat="52.45110000" lon="13.28715000">
        <ele>52.000000</ele>
        <time>2010-04-28T15:15:03Z</time>
      </trkpt>
      <trkpt lat="52.45083000" lon="13.28741000">
        <ele>52.000000</ele>
        <time>2010-04-28T15:15:16Z</time>
      </trkpt>
      <trkpt lat="52.45011000" lon="13.28849000">
        <ele>53.000000</ele>
        <time>2010-04-28T15:15:55Z</time>
      </trkpt>
      <trkpt lat="52.44951000" lon="13.28923000">
        <ele>55.000000</ele>
        <time>2010-04-28T15:16:25Z</time>
      </trkpt>
      <trkpt lat="52.44639000" lon="13.29284000">
        <ele>54.000000</ele>
        <time>2010-04-28T15:18:58Z</time>
      </trkpt>
      <trkpt lat="52.44564000" lon="13.29365000">
        <ele>48.000000</ele>
        <time>2010-04-28T15:19:34Z</time>
      </trkpt>
      <trkpt lat="52.44504000" lon="13.29435000">
        <ele>52.000000</ele>
        <time>2010-04-28T15:20:03Z</time>
      </trkpt>
      <trkpt lat="52.44501000" lon="13.29446000">
        <ele>52.000000</ele>
        <time>2010-04-28T15:20:06Z</time>
      </trkpt>
      <trkpt lat="52.43407000" lon="13.30654000">
        <ele>50.000000</ele>
        <time>2010-04-28T15:28:54Z</time>
      </trkpt>
      <trkpt lat="52.43377000" lon="13.30692000">
        <ele>50.000000</ele>
        <time>2010-04-28T15:29:09Z</time>
      </trkpt>
      <trkpt lat="52.43363000" lon="13.30696000">
        <ele>48.000000</ele>
        <time>2010-04-28T15:29:15Z</time>
      </trkpt>
      <trkpt lat="52.43174000" lon="13.30903000">
        <ele>43.000000</ele>
        <time>2010-04-28T15:30:46Z</time>
      </trkpt>
      <trkpt lat="52.43135000" lon="13.30957000">
        <ele>43.000000</ele>
        <time>2010-04-28T15:31:06Z</time>
      </trkpt>
      <trkpt lat="52.43113000" lon="13.30931000">
        <ele>45.000000</ele>
        <time>2010-04-28T15:31:17Z</time>
      </trkpt>
      <trkpt lat="52.43099000" lon="13.30922000">
        <ele>45.000000</ele>
        <time>2010-04-28T15:31:23Z</time>
      </trkpt>
      <trkpt lat="52.42958000" lon="13.30756000">
        <ele>43.000000</ele>
        <time>2010-04-28T15:32:33Z</time>
      </trkpt>
      <trkpt lat="52.42883000" lon="13.30674000">
        <ele>43.000000</ele>
        <time>2010-04-28T15:33:09Z</time>
      </trkpt>
      <trkpt lat="52.42664000" lon="13.30418000">
        <ele>42.000000</ele>
        <time>2010-04-28T15:34:57Z</time>
      </trkpt>
      <trkpt lat="52.42238000" lon="13.29917000">
        <ele>41.000000</ele>
        <time>2010-04-28T15:38:26Z</time>
      </trkpt>
      <trkpt lat="52.42194710" lon="13.29843520">
        <ele>40.000000</ele>
        <time>2010-04-28T15:38:51Z</time>
      </trkpt>
      <trkpt lat="52.42052730" lon="13.30123540">
        <ele>40.000000</ele>
        <time>2010-04-28T15:40:20Z</time>
      </trkpt>
      <trkpt lat="52.41971600" lon="13.30286620">
        <ele>36.000000</ele>
        <time>2010-04-28T15:41:12Z</time>
      </trkpt>
      <trkpt lat="52.41912050" lon="13.30392830">
        <ele>39.000000</ele>
        <time>2010-04-28T15:41:47Z</time>
      </trkpt>
      <trkpt lat="52.41802120" lon="13.30469010">
        <ele>39.000000</ele>
        <time>2010-04-28T15:42:35Z</time>
      </trkpt>
      <trkpt lat="52.41788380" lon="13.30523720">
        <ele>41.000000</ele>
        <time>2010-04-28T15:42:49Z</time>
      </trkpt>
      <trkpt lat="52.41694810" lon="13.30462570">
        <ele>44.000000</ele>
        <time>2010-04-28T15:43:29Z</time>
      </trkpt>
      <trkpt lat="52.41601230" lon="13.30387470">
        <ele>43.000000</ele>
        <time>2010-04-28T15:44:11Z</time>
      </trkpt>
      <trkpt lat="52.41362380" lon="13.30161090">
        <ele>43.000000</ele>
        <time>2010-04-28T15:46:02Z</time>
      </trkpt>
      <trkpt lat="52.41314930" lon="13.30113350">
        <ele>42.000000</ele>
        <time>2010-04-28T15:46:24Z</time>
      </trkpt>
      <trkpt lat="52.41273050" lon="13.30059700">
        <ele>46.000000</ele>
        <time>2010-04-28T15:46:45Z</time>
      </trkpt>
      <trkpt lat="52.41183390" lon="13.29815080">
        <ele>43.000000</ele>
        <time>2010-04-28T15:47:55Z</time>
      </trkpt>
      <trkpt lat="52.41179140" lon="13.29786650">
        <ele>41.000000</ele>
        <time>2010-04-28T15:48:02Z</time>
      </trkpt>
      <trkpt lat="52.41048250" lon="13.29435820">
        <ele>39.000000</ele>
        <time>2010-04-28T15:49:42Z</time>
      </trkpt>
      <trkpt lat="52.40914740" lon="13.29086060">
        <ele>42.000000</ele>
        <time>2010-04-28T15:51:23Z</time>
      </trkpt>
      <trkpt lat="52.40730170" lon="13.28607550">
        <ele>43.000000</ele>
        <time>2010-04-28T15:53:41Z</time>
      </trkpt>
      <trkpt lat="52.40625120" lon="13.28351140">
        <ele>42.000000</ele>
        <time>2010-04-28T15:54:57Z</time>
      </trkpt>
      <trkpt lat="52.40443820" lon="13.28006200">
        <ele>40.000000</ele>
        <time>2010-04-28T15:56:48Z</time>
      </trkpt>
      <trkpt lat="52.40434000" lon="13.27984210">
        <ele>40.000000</ele>
        <time>2010-04-28T15:56:55Z</time>
      </trkpt>
      <trkpt lat="52.40425160" lon="13.27948270">
        <ele>38.000000</ele>
        <time>2010-04-28T15:57:04Z</time>
      </trkpt>
      <trkpt lat="52.40323050" lon="13.27568470">
        <ele>38.000000</ele>
        <time>2010-04-28T15:58:45Z</time>
      </trkpt>
      <trkpt lat="52.40311920" lon="13.27552910">
        <ele>38.000000</ele>
        <time>2010-04-28T15:58:51Z</time>
      </trkpt>
      <trkpt lat="52.40253990" lon="13.27338330">
        <ele>39.000000</ele>
        <time>2010-04-28T15:59:49Z</time>
      </trkpt>
      <trkpt lat="52.40215040" lon="13.27207980">
        <ele>35.000000</ele>
        <time>2010-04-28T16:00:24Z</time>
      </trkpt>
      <trkpt lat="52.40220280" lon="13.27191350">
        <ele>35.000000</ele>
        <time>2010-04-28T16:00:29Z</time>
      </trkpt>
      <trkpt lat="52.40215700" lon="13.27179550">
        <ele>35.000000</ele>
        <time>2010-04-28T16:00:32Z</time>
      </trkpt>
      <trkpt lat="52.40263480" lon="13.27120540">
        <ele>35.000000</ele>
        <time>2010-04-28T16:00:56Z</time>
      </trkpt>
      <trkpt lat="52.40274610" lon="13.27084060">
        <ele>35.000000</ele>
        <time>2010-04-28T16:01:06Z</time>
      </trkpt>
      <trkpt lat="52.40281810" lon="13.27061530">
        <ele>35.000000</ele>
        <time>2010-04-28T16:01:12Z</time>
      </trkpt>
      <trkpt lat="52.40290980" lon="13.27003590">
        <ele>37.000000</ele>
        <time>2010-04-28T16:01:27Z</time>
      </trkpt>
      <trkpt lat="52.40297520" lon="13.26967120">
        <ele>33.000000</ele>
        <time>2010-04-28T16:01:36Z</time>
      </trkpt>
      <trkpt lat="52.40301450" lon="13.26924200">
        <ele>34.000000</ele>
        <time>2010-04-28T16:01:47Z</time>
      </trkpt>
      <trkpt lat="52.40304070" lon="13.26909180">
        <ele>34.000000</ele>
        <time>2010-04-28T16:01:50Z</time>
      </trkpt>
      <trkpt lat="52.40310610" lon="13.26901670">
        <ele>34.000000</ele>
        <time>2010-04-28T16:01:54Z</time>
      </trkpt>
      <trkpt lat="52.40309300" lon="13.26885580">
        <ele>34.000000</ele>
        <time>2010-04-28T16:01:58Z</time>
      </trkpt>
      <trkpt lat="52.40310610" lon="13.26857680">
        <ele>36.000000</ele>
        <time>2010-04-28T16:02:04Z</time>
      </trkpt>
      <trkpt lat="52.40328290" lon="13.26766490">
        <ele>36.000000</ele>
        <time>2010-04-28T16:02:28Z</time>
      </trkpt>
      <trkpt lat="52.40344650" lon="13.26712840">
        <ele>36.000000</ele>
        <time>2010-04-28T16:02:42Z</time>
      </trkpt>
      <trkpt lat="52.40358400" lon="13.26645250">
        <ele>36.000000</ele>
        <time>2010-04-28T16:03:00Z</time>
      </trkpt>
      <trkpt lat="52.40372800" lon="13.26555130">
        <ele>35.000000</ele>
        <time>2010-04-28T16:03:23Z</time>
      </trkpt>
      <trkpt lat="52.40416000" lon="13.26296560">
        <ele>33.000000</ele>
        <time>2010-04-28T16:04:28Z</time>
      </trkpt>
      <trkpt lat="52.40470980" lon="13.25985430">
        <ele>35.000000</ele>
        <time>2010-04-28T16:05:47Z</time>
      </trkpt>
      <trkpt lat="52.40484070" lon="13.25908180">
        <ele>35.000000</ele>
        <time>2010-04-28T16:06:07Z</time>
      </trkpt>
      <trkpt lat="52.40476220" lon="13.25732230">
        <ele>37.000000</ele>
        <time>2010-04-28T16:06:50Z</time>
      </trkpt>
      <trkpt lat="52.40448720" lon="13.25549840">
        <ele>38.000000</ele>
        <time>2010-04-28T16:07:36Z</time>
      </trkpt>
      <trkpt lat="52.40385890" lon="13.25376030">
        <ele>38.000000</ele>
        <time>2010-04-28T16:08:25Z</time>
      </trkpt>
      <trkpt lat="52.40300790" lon="13.25152870">
        <ele>38.000000</ele>
        <time>2010-04-28T16:09:29Z</time>
      </trkpt>
      <trkpt lat="52.40192130" lon="13.24867480">
        <ele>39.000000</ele>
        <time>2010-04-28T16:10:52Z</time>
      </trkpt>
      <trkpt lat="52.40100490" lon="13.24607840">
        <ele>38.000000</ele>
        <time>2010-04-28T16:12:05Z</time>
      </trkpt>
      <trkpt lat="52.40041580" lon="13.24449060">
        <ele>35.000000</ele>
        <time>2010-04-28T16:12:50Z</time>
      </trkpt>
      <trkpt lat="52.39953860" lon="13.24220530">
        <ele>36.000000</ele>
        <time>2010-04-28T16:13:56Z</time>
      </trkpt>
      <trkpt lat="52.39925710" lon="13.24159380">
        <ele>36.000000</ele>
        <time>2010-04-28T16:14:15Z</time>
      </trkpt>
      <trkpt lat="52.39921130" lon="13.24158310">
        <ele>36.000000</ele>
        <time>2010-04-28T16:14:17Z</time>
      </trkpt>
      <trkpt lat="52.39832750" lon="13.24235550">
        <ele>40.000000</ele>
        <time>2010-04-28T16:14:57Z</time>
      </trkpt>
      <trkpt lat="52.39703130" lon="13.24360010">
        <ele>40.000000</ele>
        <time>2010-04-28T16:15:57Z</time>
      </trkpt>
      <trkpt lat="52.39610170" lon="13.24400780">
        <ele>40.000000</ele>
        <time>2010-04-28T16:16:35Z</time>
      </trkpt>
      <trkpt lat="52.39470070" lon="13.24460860">
        <ele>39.000000</ele>
        <time>2010-04-28T16:17:33Z</time>
      </trkpt>
      <trkpt lat="52.39332580" lon="13.24512360">
        <ele>38.000000</ele>
        <time>2010-04-28T16:18:30Z</time>
      </trkpt>
      <trkpt lat="52.39108660" lon="13.24598190">
        <ele>38.000000</ele>
        <time>2010-04-28T16:20:02Z</time>
      </trkpt>
      <trkpt lat="52.38569120" lon="13.24699040">
        <ele>48.000000</ele>
        <time>2010-04-28T16:23:39Z</time>
      </trkpt>
      <trkpt lat="52.38250860" lon="13.24762340">
        <ele>46.000000</ele>
        <time>2010-04-28T16:25:48Z</time>
      </trkpt>
      <trkpt lat="52.38161800" lon="13.24791310">
        <ele>45.000000</ele>
        <time>2010-04-28T16:26:24Z</time>
      </trkpt>
      <trkpt lat="52.38159180" lon="13.24805250">
        <ele>44.000000</ele>
        <time>2010-04-28T16:26:28Z</time>
      </trkpt>
      <trkpt lat="52.38153940" lon="13.24815980">
        <ele>44.000000</ele>
        <time>2010-04-28T16:26:31Z</time>
      </trkpt>
      <trkpt lat="52.38146080" lon="13.24828860">
        <ele>44.000000</ele>
        <time>2010-04-28T16:26:35Z</time>
      </trkpt>
      <trkpt lat="52.38138870" lon="13.24825640">
        <ele>44.000000</ele>
        <time>2010-04-28T16:26:38Z</time>
      </trkpt>
      <trkpt lat="52.38123810" lon="13.24836370">
        <ele>45.000000</ele>
        <time>2010-04-28T16:26:45Z</time>
      </trkpt>
      <trkpt lat="52.38099580" lon="13.24881430">
        <ele>44.000000</ele>
        <time>2010-04-28T16:27:00Z</time>
      </trkpt>
      <trkpt lat="52.38061600" lon="13.24951170">
        <ele>44.000000</ele>
        <time>2010-04-28T16:27:22Z</time>
      </trkpt>
      <trkpt lat="52.38022960" lon="13.25013390">
        <ele>45.000000</ele>
        <time>2010-04-28T16:27:44Z</time>
      </trkpt>
      <trkpt lat="52.37948950" lon="13.25173250">
        <ele>48.000000</ele>
        <time>2010-04-28T16:28:33Z</time>
      </trkpt>
      <trkpt lat="52.37876910" lon="13.25370660">
        <ele>49.000000</ele>
        <time>2010-04-28T16:29:29Z</time>
      </trkpt>
      <trkpt lat="52.37819930" lon="13.25598120">
        <ele>47.000000</ele>
        <time>2010-04-28T16:30:29Z</time>
      </trkpt>
      <trkpt lat="52.37727000" lon="13.26191000">
        <ele>40.000000</ele>
        <time>2010-04-28T16:32:59Z</time>
      </trkpt>
      <trkpt lat="52.37590000" lon="13.26260000">
        <ele>41.000000</ele>
        <time>2010-04-28T16:33:56Z</time>
      </trkpt>
      <trkpt lat="52.37486000" lon="13.26301000">
        <ele>41.000000</ele>
        <time>2010-04-28T16:34:39Z</time>
      </trkpt>
      <trkpt lat="52.37444000" lon="13.26303000">
        <ele>42.000000</ele>
        <time>2010-04-28T16:34:56Z</time>
      </trkpt>
      <trkpt lat="52.37362000" lon="13.26319000">
        <ele>41.000000</ele>
        <time>2010-04-28T16:35:29Z</time>
      </trkpt>
      <trkpt lat="52.36400000" lon="13.26669000">
        <ele>48.000000</ele>
        <time>2010-04-28T16:42:04Z</time>
      </trkpt>
      <trkpt lat="52.36331000" lon="13.26702000">
        <ele>48.000000</ele>
        <time>2010-04-28T16:42:32Z</time>
      </trkpt>
      <trkpt lat="52.36296000" lon="13.26726000">
        <ele>44.000000</ele>
        <time>2010-04-28T16:42:48Z</time>
      </trkpt>
      <trkpt lat="52.36201000" lon="13.26848000">
        <ele>46.000000</ele>
        <time>2010-04-28T16:43:36Z</time>
      </trkpt>
      <trkpt lat="52.36175000" lon="13.26876000">
        <ele>41.000000</ele>
        <time>2010-04-28T16:43:48Z</time>
      </trkpt>
      <trkpt lat="52.36156000" lon="13.26893000">
        <ele>41.000000</ele>
        <time>2010-04-28T16:43:57Z</time>
      </trkpt>
      <trkpt lat="52.36061000" lon="13.26952000">
        <ele>42.000000</ele>
        <time>2010-04-28T16:44:38Z</time>
      </trkpt>
      <trkpt lat="52.36012000" lon="13.26962000">
        <ele>42.000000</ele>
        <time>2010-04-28T16:44:57Z</time>
      </trkpt>
      <trkpt lat="52.35962000" lon="13.26964000">
        <ele>42.000000</ele>
        <time>2010-04-28T16:45:17Z</time>
      </trkpt>
      <trkpt lat="52.35891000" lon="13.26951000">
        <ele>49.000000</ele>
        <time>2010-04-28T16:45:46Z</time>
      </trkpt>
      <trkpt lat="52.35845000" lon="13.26936000">
        <ele>46.000000</ele>
        <time>2010-04-28T16:46:05Z</time>
      </trkpt>
      <trkpt lat="52.35750000" lon="13.26929000">
        <ele>42.000000</ele>
        <time>2010-04-28T16:46:43Z</time>
      </trkpt>
      <trkpt lat="52.35640000" lon="13.26960000">
        <ele>42.000000</ele>
        <time>2010-04-28T16:47:28Z</time>
      </trkpt>
      <trkpt lat="52.35597000" lon="13.26994000">
        <ele>43.000000</ele>
        <time>2010-04-28T16:47:47Z</time>
      </trkpt>
      <trkpt lat="52.35471000" lon="13.27118000">
        <ele>43.000000</ele>
        <time>2010-04-28T16:48:46Z</time>
      </trkpt>
      <trkpt lat="52.35224000" lon="13.27287000">
        <ele>44.000000</ele>
        <time>2010-04-28T16:50:33Z</time>
      </trkpt>
      <trkpt lat="52.34976000" lon="13.27465000">
        <ele>46.000000</ele>
        <time>2010-04-28T16:52:21Z</time>
      </trkpt>
      <trkpt lat="52.34866000" lon="13.27542000">
        <ele>47.000000</ele>
        <time>2010-04-28T16:53:09Z</time>
      </trkpt>
      <trkpt lat="52.34852000" lon="13.27544000">
        <ele>47.000000</ele>
        <time>2010-04-28T16:53:15Z</time>
      </trkpt>
      <trkpt lat="52.34846000" lon="13.27540000">
        <ele>49.000000</ele>
        <time>2010-04-28T16:53:17Z</time>
      </trkpt>
      <trkpt lat="52.34841000" lon="13.27528000">
        <ele>49.000000</ele>
        <time>2010-04-28T16:53:21Z</time>
      </trkpt>
      <trkpt lat="52.34039320" lon="13.25229040">
        <ele>45.000000</ele>
        <time>2010-04-28T17:04:08Z</time>
      </trkpt>
      <trkpt lat="52.33998000" lon="13.25094000">
        <ele>46.000000</ele>
        <time>2010-04-28T17:04:45Z</time>
      </trkpt>
      <trkpt lat="52.33983600" lon="13.25057380">
        <ele>46.000000</ele>
        <time>2010-04-28T17:04:56Z</time>
      </trkpt>
      <trkpt lat="52.33978360" lon="13.24979060">
        <ele>46.000000</ele>
        <time>2010-04-28T17:05:15Z</time>
      </trkpt>
      <trkpt lat="52.33975740" lon="13.24809550">
        <ele>45.000000</ele>
        <time>2010-04-28T17:05:56Z</time>
      </trkpt>
      <trkpt lat="52.33978360" lon="13.24449060">
        <ele>45.000000</ele>
        <time>2010-04-28T17:07:25Z</time>
      </trkpt>
      <trkpt lat="52.33965250" lon="13.24101440">
        <ele>45.000000</ele>
        <time>2010-04-28T17:08:50Z</time>
      </trkpt>
      <trkpt lat="52.33942960" lon="13.23826780">
        <ele>42.000000</ele>
        <time>2010-04-28T17:09:58Z</time>
      </trkpt>
      <trkpt lat="52.33919360" lon="13.23419090">
        <ele>43.000000</ele>
        <time>2010-04-28T17:11:38Z</time>
      </trkpt>
      <trkpt lat="52.33885280" lon="13.22841880">
        <ele>45.000000</ele>
        <time>2010-04-28T17:14:00Z</time>
      </trkpt>
      <trkpt lat="52.33880030" lon="13.22494260">
        <ele>43.000000</ele>
        <time>2010-04-28T17:15:25Z</time>
      </trkpt>
      <trkpt lat="52.33876100" lon="13.22391270">
        <ele>43.000000</ele>
        <time>2010-04-28T17:15:50Z</time>
      </trkpt>
      <trkpt lat="52.33855120" lon="13.22303290">
        <ele>45.000000</ele>
        <time>2010-04-28T17:16:13Z</time>
      </trkpt>
      <trkpt lat="52.33865610" lon="13.22157380">
        <ele>45.000000</ele>
        <time>2010-04-28T17:16:49Z</time>
      </trkpt>
      <trkpt lat="52.33890520" lon="13.21974990">
        <ele>50.000000</ele>
        <time>2010-04-28T17:17:35Z</time>
      </trkpt>
      <trkpt lat="52.33904940" lon="13.21809760">
        <ele>47.000000</ele>
        <time>2010-04-28T17:18:15Z</time>
      </trkpt>
      <trkpt lat="52.33957380" lon="13.21593040">
        <ele>44.000000</ele>
        <time>2010-04-28T17:19:12Z</time>
      </trkpt>
      <trkpt lat="52.34051780" lon="13.20698260">
        <ele>44.000000</ele>
        <time>2010-04-28T17:22:54Z</time>
      </trkpt>
      <trkpt lat="52.34076680" lon="13.20438620">
        <ele>47.000000</ele>
        <time>2010-04-28T17:23:59Z</time>
      </trkpt>
      <trkpt lat="52.34123880" lon="13.20075980">
        <ele>45.000000</ele>
        <time>2010-04-28T17:25:29Z</time>
      </trkpt>
      <trkpt lat="52.34122570" lon="13.20000880">
        <ele>45.000000</ele>
        <time>2010-04-28T17:25:48Z</time>
      </trkpt>
      <trkpt lat="52.34839610" lon="13.19580310">
        <ele>42.000000</ele>
        <time>2010-04-28T17:30:53Z</time>
      </trkpt>
      <trkpt lat="52.35117480" lon="13.19376460">
        <ele>44.000000</ele>
        <time>2010-04-28T17:32:55Z</time>
      </trkpt>
      <trkpt lat="52.35510670" lon="13.18930140">
        <ele>52.000000</ele>
        <time>2010-04-28T17:36:06Z</time>
      </trkpt>
      <trkpt lat="52.35819950" lon="13.18904390">
        <ele>47.000000</ele>
        <time>2010-04-28T17:38:10Z</time>
      </trkpt>
      <trkpt lat="52.36012590" lon="13.18943020">
        <ele>49.000000</ele>
        <time>2010-04-28T17:39:28Z</time>
      </trkpt>
      <trkpt lat="52.35536880" lon="13.18331480">
        <ele>48.000000</ele>
        <time>2010-04-28T17:43:30Z</time>
      </trkpt>
      <trkpt lat="52.35480530" lon="13.18260660">
        <ele>47.000000</ele>
        <time>2010-04-28T17:43:58Z</time>
      </trkpt>
      <trkpt lat="52.35387480" lon="13.18101880">
        <ele>44.000000</ele>
        <time>2010-04-28T17:44:52Z</time>
      </trkpt>
      <trkpt lat="52.35243310" lon="13.17837950">
        <ele>41.000000</ele>
        <time>2010-04-28T17:46:19Z</time>
      </trkpt>
      <trkpt lat="52.34753100" lon="13.16492550">
        <ele>42.000000</ele>
        <time>2010-04-28T17:52:42Z</time>
      </trkpt>
      <trkpt lat="52.34475210" lon="13.16007610">
        <ele>45.000000</ele>
        <time>2010-04-28T17:55:24Z</time>
      </trkpt>
      <trkpt lat="52.34227440" lon="13.15700760">
        <ele>42.000000</ele>
        <time>2010-04-28T17:57:29Z</time>
      </trkpt>
      <trkpt lat="52.34203850" lon="13.15694330">
        <ele>44.000000</ele>
        <time>2010-04-28T17:57:38Z</time>
      </trkpt>
      <trkpt lat="52.34180250" lon="13.15692180">
        <ele>44.000000</ele>
        <time>2010-04-28T17:57:48Z</time>
      </trkpt>
      <trkpt lat="52.33923300" lon="13.15896030">
        <ele>39.000000</ele>
        <time>2010-04-28T17:59:42Z</time>
      </trkpt>
      <trkpt lat="52.33663700" lon="13.16082710">
        <ele>40.000000</ele>
        <time>2010-04-28T18:01:36Z</time>
      </trkpt>
      <trkpt lat="52.33520790" lon="13.16202870">
        <ele>36.000000</ele>
        <time>2010-04-28T18:02:40Z</time>
      </trkpt>
      <trkpt lat="52.33372630" lon="13.16754340">
        <ele>33.000000</ele>
        <time>2010-04-28T18:05:07Z</time>
      </trkpt>
      <trkpt lat="52.33272980" lon="13.17071910">
        <ele>37.000000</ele>
        <time>2010-04-28T18:06:35Z</time>
      </trkpt>
      <trkpt lat="52.33248060" lon="13.17149160">
        <ele>38.000000</ele>
        <time>2010-04-28T18:06:56Z</time>
      </trkpt>
      <trkpt lat="52.33216590" lon="13.17185640">
        <ele>38.000000</ele>
        <time>2010-04-28T18:07:11Z</time>
      </trkpt>
      <trkpt lat="52.33186430" lon="13.17207090">
        <ele>34.000000</ele>
        <time>2010-04-28T18:07:25Z</time>
      </trkpt>
      <trkpt lat="52.33084160" lon="13.17282190">
        <ele>34.000000</ele>
        <time>2010-04-28T18:08:09Z</time>
      </trkpt>
      <trkpt lat="52.33052680" lon="13.17277900">
        <ele>34.000000</ele>
        <time>2010-04-28T18:08:22Z</time>
      </trkpt>
      <trkpt lat="52.33044820" lon="13.17290780">
        <ele>34.000000</ele>
        <time>2010-04-28T18:08:26Z</time>
      </trkpt>
      <trkpt lat="52.33043510" lon="13.17314380">
        <ele>34.000000</ele>
        <time>2010-04-28T18:08:32Z</time>
      </trkpt>
      <trkpt lat="52.32966140" lon="13.17372320">
        <ele>35.000000</ele>
        <time>2010-04-28T18:09:06Z</time>
      </trkpt>
      <trkpt lat="52.32875660" lon="13.17430250">
        <ele>34.000000</ele>
        <time>2010-04-28T18:09:45Z</time>
      </trkpt>
      <trkpt lat="52.32858610" lon="13.17468880">
        <ele>34.000000</ele>
        <time>2010-04-28T18:09:57Z</time>
      </trkpt>
      <trkpt lat="52.32832380" lon="13.17559000">
        <ele>34.000000</ele>
        <time>2010-04-28T18:10:21Z</time>
      </trkpt>
      <trkpt lat="52.32689440" lon="13.17756410">
        <ele>34.000000</ele>
        <time>2010-04-28T18:11:36Z</time>
      </trkpt>
      <trkpt lat="52.32373380" lon="13.18464510">
        <ele>35.000000</ele>
        <time>2010-04-28T18:15:11Z</time>
      </trkpt>
      <trkpt lat="52.32235680" lon="13.18649050">
        <ele>39.000000</ele>
        <time>2010-04-28T18:16:22Z</time>
      </trkpt>
      <trkpt lat="52.32125510" lon="13.18831440">
        <ele>43.000000</ele>
        <time>2010-04-28T18:17:25Z</time>
      </trkpt>
      <trkpt lat="52.32048120" lon="13.18977350">
        <ele>45.000000</ele>
        <time>2010-04-28T18:18:12Z</time>
      </trkpt>
      <trkpt lat="52.32021890" lon="13.19033140">
        <ele>36.000000</ele>
        <time>2010-04-28T18:18:29Z</time>
      </trkpt>
      <trkpt lat="52.32008780" lon="13.19108240">
        <ele>38.000000</ele>
        <time>2010-04-28T18:18:48Z</time>
      </trkpt>
      <trkpt lat="52.31970740" lon="13.19543830">
        <ele>40.000000</ele>
        <time>2010-04-28T18:20:36Z</time>
      </trkpt>
      <trkpt lat="52.31941880" lon="13.20030920">
        <ele>39.000000</ele>
        <time>2010-04-28T18:22:36Z</time>
      </trkpt>
      <trkpt lat="52.31923520" lon="13.20288410">
        <ele>41.000000</ele>
        <time>2010-04-28T18:23:39Z</time>
      </trkpt>
      <trkpt lat="52.31899910" lon="13.20479390">
        <ele>38.000000</ele>
        <time>2010-04-28T18:24:27Z</time>
      </trkpt>
      <trkpt lat="52.31889420" lon="13.20612430">
        <ele>37.000000</ele>
        <time>2010-04-28T18:25:00Z</time>
      </trkpt>
      <trkpt lat="52.31889420" lon="13.20758340">
        <ele>40.000000</ele>
        <time>2010-04-28T18:25:35Z</time>
      </trkpt>
      <trkpt lat="52.31899910" lon="13.21054450">
        <ele>46.000000</ele>
        <time>2010-04-28T18:26:48Z</time>
      </trkpt>
      <trkpt lat="52.31851380" lon="13.21449270">
        <ele>46.000000</ele>
        <time>2010-04-28T18:28:26Z</time>
      </trkpt>
      <trkpt lat="52.31822520" lon="13.21751830">
        <ele>45.000000</ele>
        <time>2010-04-28T18:29:41Z</time>
      </trkpt>
      <trkpt lat="52.31776620" lon="13.22054380">
        <ele>43.000000</ele>
        <time>2010-04-28T18:30:58Z</time>
      </trkpt>
      <trkpt lat="52.31758250" lon="13.22118750">
        <ele>43.000000</ele>
        <time>2010-04-28T18:31:15Z</time>
      </trkpt>
      <trkpt lat="52.31756940" lon="13.22200290">
        <ele>42.000000</ele>
        <time>2010-04-28T18:31:35Z</time>
      </trkpt>
      <trkpt lat="52.31764810" lon="13.22341910">
        <ele>44.000000</ele>
        <time>2010-04-28T18:32:10Z</time>
      </trkpt>
      <trkpt lat="52.31792360" lon="13.22601550">
        <ele>43.000000</ele>
        <time>2010-04-28T18:33:14Z</time>
      </trkpt>
      <trkpt lat="52.31826460" lon="13.22856900">
        <ele>43.000000</ele>
        <time>2010-04-28T18:34:18Z</time>
      </trkpt>
      <trkpt lat="52.31840890" lon="13.23014610">
        <ele>44.000000</ele>
        <time>2010-04-28T18:34:57Z</time>
      </trkpt>
      <trkpt lat="52.31837610" lon="13.23089710">
        <ele>45.000000</ele>
        <time>2010-04-28T18:35:16Z</time>
      </trkpt>
      <trkpt lat="52.31829080" lon="13.23157310">
        <ele>46.000000</ele>
        <time>2010-04-28T18:35:33Z</time>
      </trkpt>
      <trkpt lat="52.31808100" lon="13.23214170">
        <ele>46.000000</ele>
        <time>2010-04-28T18:35:49Z</time>
      </trkpt>
      <trkpt lat="52.31777930" lon="13.23271030">
        <ele>46.000000</ele>
        <time>2010-04-28T18:36:07Z</time>
      </trkpt>
      <trkpt lat="52.31721530" lon="13.23371880">
        <ele>46.000000</ele>
        <time>2010-04-28T18:36:41Z</time>
      </trkpt>
      <trkpt lat="52.31616590" lon="13.23562860">
        <ele>43.000000</ele>
        <time>2010-04-28T18:37:44Z</time>
      </trkpt>
      <trkpt lat="52.31602820" lon="13.23603630">
        <ele>43.000000</ele>
        <time>2010-04-28T18:37:55Z</time>
      </trkpt>
      <trkpt lat="52.31502470" lon="13.23723790">
        <ele>41.000000</ele>
        <time>2010-04-28T18:38:45Z</time>
      </trkpt>
      <trkpt lat="52.31402120" lon="13.23838590">
        <ele>41.000000</ele>
        <time>2010-04-28T18:39:34Z</time>
      </trkpt>
      <trkpt lat="52.31188290" lon="13.24085350">
        <ele>42.000000</ele>
        <time>2010-04-28T18:41:19Z</time>
      </trkpt>
      <trkpt lat="52.31095150" lon="13.24195860">
        <ele>40.000000</ele>
        <time>2010-04-28T18:42:05Z</time>
      </trkpt>
      <trkpt lat="52.31051200" lon="13.24248430">
        <ele>41.000000</ele>
        <time>2010-04-28T18:42:26Z</time>
      </trkpt>
      <trkpt lat="52.31018410" lon="13.24304220">
        <ele>41.000000</ele>
        <time>2010-04-28T18:42:45Z</time>
      </trkpt>
      <trkpt lat="52.31085310" lon="13.24423310">
        <ele>41.000000</ele>
        <time>2010-04-28T18:43:25Z</time>
      </trkpt>
      <trkpt lat="52.31143030" lon="13.24569220">
        <ele>41.000000</ele>
        <time>2010-04-28T18:44:07Z</time>
      </trkpt>
      <trkpt lat="52.31223060" lon="13.24704400">
        <ele>43.000000</ele>
        <time>2010-04-28T18:44:53Z</time>
      </trkpt>
      <trkpt lat="52.31318820" lon="13.24828860">
        <ele>42.000000</ele>
        <time>2010-04-28T18:45:42Z</time>
      </trkpt>
      <trkpt lat="52.31397530" lon="13.24903960">
        <ele>42.000000</ele>
        <time>2010-04-28T18:46:19Z</time>
      </trkpt>
      <trkpt lat="52.31493290" lon="13.24946880">
        <ele>44.000000</ele>
        <time>2010-04-28T18:46:59Z</time>
      </trkpt>
      <trkpt lat="52.31537890" lon="13.24983350">
        <ele>47.000000</ele>
        <time>2010-04-28T18:47:19Z</time>
      </trkpt>
      <trkpt lat="52.31574610" lon="13.25028410">
        <ele>50.000000</ele>
        <time>2010-04-28T18:47:37Z</time>
      </trkpt>
      <trkpt lat="52.31606100" lon="13.25105660">
        <ele>50.000000</ele>
        <time>2010-04-28T18:48:00Z</time>
      </trkpt>
      <trkpt lat="52.31649380" lon="13.25144290">
        <ele>48.000000</ele>
        <time>2010-04-28T18:48:19Z</time>
      </trkpt>
      <trkpt lat="52.31582480" lon="13.26204290">
        <ele>46.000000</ele>
        <time>2010-04-28T18:52:40Z</time>
      </trkpt>
      <trkpt lat="52.31533950" lon="13.26944580">
        <ele>43.000000</ele>
        <time>2010-04-28T18:55:42Z</time>
      </trkpt>
      <trkpt lat="52.31503780" lon="13.27371590">
        <ele>41.000000</ele>
        <time>2010-04-28T18:57:28Z</time>
      </trkpt>
      <trkpt lat="52.31477550" lon="13.27790020">
        <ele>41.000000</ele>
        <time>2010-04-28T18:59:11Z</time>
      </trkpt>
      <trkpt lat="52.31450000" lon="13.28253500">
        <ele>45.000000</ele>
        <time>2010-04-28T19:01:04Z</time>
      </trkpt>
      <trkpt lat="52.31430320" lon="13.28302860">
        <ele>44.000000</ele>
        <time>2010-04-28T19:01:19Z</time>
      </trkpt>
      <trkpt lat="52.31442130" lon="13.28362940">
        <ele>44.000000</ele>
        <time>2010-04-28T19:01:34Z</time>
      </trkpt>
      <trkpt lat="52.31406000" lon="13.28776000">
        <ele>46.000000</ele>
        <time>2010-04-28T19:03:16Z</time>
      </trkpt>
      <trkpt lat="52.31385000" lon="13.28833000">
        <ele>48.000000</ele>
        <time>2010-04-28T19:03:33Z</time>
      </trkpt>
      <trkpt lat="52.31385000" lon="13.28857000">
        <ele>48.000000</ele>
        <time>2010-04-28T19:03:39Z</time>
      </trkpt>
      <trkpt lat="52.31399000" lon="13.28982000">
        <ele>49.000000</ele>
        <time>2010-04-28T19:04:10Z</time>
      </trkpt>
      <trkpt lat="52.31382000" lon="13.29219000">
        <ele>40.000000</ele>
        <time>2010-04-28T19:05:08Z</time>
      </trkpt>
      <trkpt lat="52.31439000" lon="13.29238000">
        <ele>40.000000</ele>
        <time>2010-04-28T19:05:31Z</time>
      </trkpt>
      <trkpt lat="52.31467000" lon="13.29238000">
        <ele>42.000000</ele>
        <time>2010-04-28T19:05:43Z</time>
      </trkpt>
      <trkpt lat="52.31505000" lon="13.29238000">
        <ele>42.000000</ele>
        <time>2010-04-28T19:05:58Z</time>
      </trkpt>
      <trkpt lat="52.31632000" lon="13.29218000">
        <ele>49.000000</ele>
        <time>2010-04-28T19:06:49Z</time>
      </trkpt>
      <trkpt lat="52.31642000" lon="13.29235000">
        <ele>49.000000</ele>
        <time>2010-04-28T19:06:55Z</time>
      </trkpt>
      <trkpt lat="52.31652000" lon="13.29233000">
        <ele>49.000000</ele>
        <time>2010-04-28T19:06:59Z</time>
      </trkpt>
      <trkpt lat="52.31659000" lon="13.29220000">
        <ele>49.000000</ele>
        <time>2010-04-28T19:07:03Z</time>
      </trkpt>
      <trkpt lat="52.31717000" lon="13.29220000">
        <ele>50.000000</ele>
        <time>2010-04-28T19:07:26Z</time>
      </trkpt>
      <trkpt lat="52.31747000" lon="13.29230000">
        <ele>50.000000</ele>
        <time>2010-04-28T19:07:38Z</time>
      </trkpt>
      <trkpt lat="52.31812000" lon="13.29257000">
        <ele>47.000000</ele>
        <time>2010-04-28T19:08:05Z</time>
      </trkpt>
      <trkpt lat="52.31869000" lon="13.29304000">
        <ele>52.000000</ele>
        <time>2010-04-28T19:08:31Z</time>
      </trkpt>
      <trkpt lat="52.31938000" lon="13.29321000">
        <ele>44.000000</ele>
        <time>2010-04-28T19:08:59Z</time>
      </trkpt>
      <trkpt lat="52.31955000" lon="13.29344000">
        <ele>44.000000</ele>
        <time>2010-04-28T19:09:08Z</time>
      </trkpt>
      <trkpt lat="52.31980000" lon="13.29348000">
        <ele>43.000000</ele>
        <time>2010-04-28T19:09:18Z</time>
      </trkpt>
      <trkpt lat="52.32001000" lon="13.29328000">
        <ele>43.000000</ele>
        <time>2010-04-28T19:09:27Z</time>
      </trkpt>
      <trkpt lat="52.32007000" lon="13.29300000">
        <ele>43.000000</ele>
        <time>2010-04-28T19:09:35Z</time>
      </trkpt>
      <trkpt lat="52.32006000" lon="13.29278000">
        <ele>41.000000</ele>
        <time>2010-04-28T19:09:40Z</time>
      </trkpt>
      <trkpt lat="52.31997000" lon="13.29256000">
        <ele>41.000000</ele>
        <time>2010-04-28T19:09:46Z</time>
      </trkpt>
      <trkpt lat="52.31983000" lon="13.29239000">
        <ele>41.000000</ele>
        <time>2010-04-28T19:09:53Z</time>
      </trkpt>
      <trkpt lat="52.31974000" lon="13.29236000">
        <ele>41.000000</ele>
        <time>2010-04-28T19:09:57Z</time>
      </trkpt>
      <trkpt lat="52.31970000" lon="13.29177000">
        <ele>39.000000</ele>
        <time>2010-04-28T19:10:12Z</time>
      </trkpt>
      <trkpt lat="52.31965000" lon="13.28903000">
        <ele>40.000000</ele>
        <time>2010-04-28T19:11:19Z</time>
      </trkpt>
      <trkpt lat="52.31977000" lon="13.28892000">
        <ele>40.000000</ele>
        <time>2010-04-28T19:11:24Z</time>
      </trkpt>
      <trkpt lat="52.31987000" lon="13.28871000">
        <ele>38.000000</ele>
        <time>2010-04-28T19:11:31Z</time>
      </trkpt>
      <trkpt lat="52.31988000" lon="13.28822000">
        <ele>38.000000</ele>
        <time>2010-04-28T19:11:43Z</time>
      </trkpt>
      <trkpt lat="52.31997000" lon="13.28783000">
        <ele>40.000000</ele>
        <time>2010-04-28T19:11:53Z</time>
      </trkpt>
      <trkpt lat="52.32013000" lon="13.28768000">
        <ele>40.000000</ele>
        <time>2010-04-28T19:12:00Z</time>
      </trkpt>
      <trkpt lat="52.32047000" lon="13.28755000">
        <ele>41.000000</ele>
        <time>2010-04-28T19:12:14Z</time>
      </trkpt>
      <trkpt lat="52.32204000" lon="13.28721000">
        <ele>43.000000</ele>
        <time>2010-04-28T19:13:18Z</time>
      </trkpt>
      <trkpt lat="52.32254000" lon="13.28703000">
        <ele>44.000000</ele>
        <time>2010-04-28T19:13:38Z</time>
      </trkpt>
      <trkpt lat="52.32525000" lon="13.28690000">
        <ele>43.000000</ele>
        <time>2010-04-28T19:15:27Z</time>
      </trkpt>
      <trkpt lat="52.32594000" lon="13.28675000">
        <ele>42.000000</ele>
        <time>2010-04-28T19:15:55Z</time>
      </trkpt>
      <trkpt lat="52.32804840" lon="13.28602190">
        <ele>41.000000</ele>
        <time>2010-04-28T19:17:21Z</time>
      </trkpt>
      <trkpt lat="52.32967450" lon="13.28534600">
        <ele>41.000000</ele>
        <time>2010-04-28T19:18:28Z</time>
      </trkpt>
      <trkpt lat="52.33067110" lon="13.28485250">
        <ele>42.000000</ele>
        <time>2010-04-28T19:19:10Z</time>
      </trkpt>
      <trkpt lat="52.33144470" lon="13.28448770">
        <ele>46.000000</ele>
        <time>2010-04-28T19:19:42Z</time>
      </trkpt>
      <trkpt lat="52.33167000" lon="13.28438000">
        <ele>46.000000</ele>
        <time>2010-04-28T19:19:51Z</time>
      </trkpt>
      <trkpt lat="52.33343000" lon="13.28354000">
        <ele>44.000000</ele>
        <time>2010-04-28T19:21:05Z</time>
      </trkpt>
      <trkpt lat="52.33471000" lon="13.28311000">
        <ele>43.000000</ele>
        <time>2010-04-28T19:21:57Z</time>
      </trkpt>
      <trkpt lat="52.33636000" lon="13.28290000">
        <ele>39.000000</ele>
        <time>2010-04-28T19:23:03Z</time>
      </trkpt>
      <trkpt lat="52.33721000" lon="13.28285000">
        <ele>42.000000</ele>
        <time>2010-04-28T19:23:37Z</time>
      </trkpt>
      <trkpt lat="52.33820000" lon="13.28283000">
        <ele>42.000000</ele>
        <time>2010-04-28T19:24:17Z</time>
      </trkpt>
      <trkpt lat="52.34030000" lon="13.28291000">
        <ele>42.000000</ele>
        <time>2010-04-28T19:25:41Z</time>
      </trkpt>
      <trkpt lat="52.34096000" lon="13.28293000">
        <ele>37.000000</ele>
        <time>2010-04-28T19:26:07Z</time>
      </trkpt>
      <trkpt lat="52.34263000" lon="13.28311000">
        <ele>40.000000</ele>
        <time>2010-04-28T19:27:14Z</time>
      </trkpt>
      <trkpt lat="52.34396000" lon="13.28346000">
        <ele>43.000000</ele>
        <time>2010-04-28T19:28:08Z</time>
      </trkpt>
      <trkpt lat="52.34654000" lon="13.28454000">
        <ele>43.000000</ele>
        <time>2010-04-28T19:29:55Z</time>
      </trkpt>
      <trkpt lat="52.34754000" lon="13.28507000">
        <ele>43.000000</ele>
        <time>2010-04-28T19:30:37Z</time>
      </trkpt>
      <trkpt lat="52.34828000" lon="13.28557000">
        <ele>42.000000</ele>
        <time>2010-04-28T19:31:09Z</time>
      </trkpt>
      <trkpt lat="52.34908000" lon="13.28634000">
        <ele>42.000000</ele>
        <time>2010-04-28T19:31:46Z</time>
      </trkpt>
      <trkpt lat="52.34961000" lon="13.28698000">
        <ele>42.000000</ele>
        <time>2010-04-28T19:32:13Z</time>
      </trkpt>
      <trkpt lat="52.35018000" lon="13.28781000">
        <ele>43.000000</ele>
        <time>2010-04-28T19:32:43Z</time>
      </trkpt>
      <trkpt lat="52.35128000" lon="13.28925000">
        <ele>46.000000</ele>
        <time>2010-04-28T19:33:40Z</time>
      </trkpt>
      <trkpt lat="52.35282000" lon="13.29090000">
        <ele>43.000000</ele>
        <time>2010-04-28T19:34:53Z</time>
      </trkpt>
      <trkpt lat="52.35339000" lon="13.29140000">
        <ele>42.000000</ele>
        <time>2010-04-28T19:35:19Z</time>
      </trkpt>
      <trkpt lat="52.35486000" lon="13.29253000">
        <ele>43.000000</ele>
        <time>2010-04-28T19:36:24Z</time>
      </trkpt>
      <trkpt lat="52.35575000" lon="13.29310000">
        <ele>44.000000</ele>
        <time>2010-04-28T19:37:02Z</time>
      </trkpt>
      <trkpt lat="52.35747000" lon="13.29399000">
        <ele>43.000000</ele>
        <time>2010-04-28T19:38:15Z</time>
      </trkpt>
      <trkpt lat="52.35919000" lon="13.29452000">
        <ele>44.000000</ele>
        <time>2010-04-28T19:39:25Z</time>
      </trkpt>
      <trkpt lat="52.36383000" lon="13.29555000">
        <ele>45.000000</ele>
        <time>2010-04-28T19:42:32Z</time>
      </trkpt>
      <trkpt lat="52.36505000" lon="13.29595000">
        <ele>44.000000</ele>
        <time>2010-04-28T19:43:22Z</time>
      </trkpt>
      <trkpt lat="52.36598000" lon="13.29637000">
        <ele>43.000000</ele>
        <time>2010-04-28T19:44:00Z</time>
      </trkpt>
      <trkpt lat="52.36788000" lon="13.29750000">
        <ele>44.000000</ele>
        <time>2010-04-28T19:45:21Z</time>
      </trkpt>
      <trkpt lat="52.36867000" lon="13.29811000">
        <ele>44.000000</ele>
        <time>2010-04-28T19:45:56Z</time>
      </trkpt>
      <trkpt lat="52.36933000" lon="13.29875000">
        <ele>43.000000</ele>
        <time>2010-04-28T19:46:27Z</time>
      </trkpt>
      <trkpt lat="52.37024000" lon="13.29983000">
        <ele>43.000000</ele>
        <time>2010-04-28T19:47:12Z</time>
      </trkpt>
      <trkpt lat="52.37067000" lon="13.30047000">
        <ele>44.000000</ele>
        <time>2010-04-28T19:47:35Z</time>
      </trkpt>
      <trkpt lat="52.37235000" lon="13.30335000">
        <ele>45.000000</ele>
        <time>2010-04-28T19:49:13Z</time>
      </trkpt>
      <trkpt lat="52.37317000" lon="13.30467000">
        <ele>48.000000</ele>
        <time>2010-04-28T19:49:59Z</time>
      </trkpt>
      <trkpt lat="52.37427000" lon="13.30631000">
        <ele>44.000000</ele>
        <time>2010-04-28T19:50:58Z</time>
      </trkpt>
      <trkpt lat="52.37552000" lon="13.30798000">
        <ele>45.000000</ele>
        <time>2010-04-28T19:52:03Z</time>
      </trkpt>
      <trkpt lat="52.37829000" lon="13.31127000">
        <ele>47.000000</ele>
        <time>2010-04-28T19:54:20Z</time>
      </trkpt>
      <trkpt lat="52.37887000" lon="13.31213000">
        <ele>48.000000</ele>
        <time>2010-04-28T19:54:51Z</time>
      </trkpt>
      <trkpt lat="52.37939000" lon="13.31314000">
        <ele>48.000000</ele>
        <time>2010-04-28T19:55:23Z</time>
      </trkpt>
      <trkpt lat="52.37971000" lon="13.31388000">
        <ele>47.000000</ele>
        <time>2010-04-28T19:55:46Z</time>
      </trkpt>
      <trkpt lat="52.38014000" lon="13.31504000">
        <ele>46.000000</ele>
        <time>2010-04-28T19:56:19Z</time>
      </trkpt>
      <trkpt lat="52.38038000" lon="13.31582000">
        <ele>45.000000</ele>
        <time>2010-04-28T19:56:40Z</time>
      </trkpt>
      <trkpt lat="52.38056000" lon="13.31657000">
        <ele>44.000000</ele>
        <time>2010-04-28T19:57:00Z</time>
      </trkpt>
      <trkpt lat="52.38082000" lon="13.31808000">
        <ele>44.000000</ele>
        <time>2010-04-28T19:57:38Z</time>
      </trkpt>
      <trkpt lat="52.38095000" lon="13.31904000">
        <ele>44.000000</ele>
        <time>2010-04-28T19:58:02Z</time>
      </trkpt>
      <trkpt lat="52.38139000" lon="13.32277000">
        <ele>41.000000</ele>
        <time>2010-04-28T19:59:35Z</time>
      </trkpt>
      <trkpt lat="52.38176000" lon="13.32490000">
        <ele>40.000000</ele>
        <time>2010-04-28T20:00:29Z</time>
      </trkpt>
      <trkpt lat="52.38239000" lon="13.32768000">
        <ele>41.000000</ele>
        <time>2010-04-28T20:01:41Z</time>
      </trkpt>
      <trkpt lat="52.38289000" lon="13.32951000">
        <ele>43.000000</ele>
        <time>2010-04-28T20:02:30Z</time>
      </trkpt>
      <trkpt lat="52.38344000" lon="13.33125000">
        <ele>39.000000</ele>
        <time>2010-04-28T20:03:18Z</time>
      </trkpt>
      <trkpt lat="52.38385000" lon="13.33238000">
        <ele>39.000000</ele>
        <time>2010-04-28T20:03:50Z</time>
      </trkpt>
      <trkpt lat="52.38431000" lon="13.33350000">
        <ele>39.000000</ele>
        <time>2010-04-28T20:04:23Z</time>
      </trkpt>
      <trkpt lat="52.38455000" lon="13.33396000">
        <ele>40.000000</ele>
        <time>2010-04-28T20:04:38Z</time>
      </trkpt>
      <trkpt lat="52.38485000" lon="13.33442000">
        <ele>40.000000</ele>
        <time>2010-04-28T20:04:55Z</time>
      </trkpt>
      <trkpt lat="52.38532000" lon="13.33498000">
        <ele>41.000000</ele>
        <time>2010-04-28T20:05:18Z</time>
      </trkpt>
      <trkpt lat="52.38565000" lon="13.33529000">
        <ele>42.000000</ele>
        <time>2010-04-28T20:05:33Z</time>
      </trkpt>
      <trkpt lat="52.38619000" lon="13.33565000">
        <ele>44.000000</ele>
        <time>2010-04-28T20:05:57Z</time>
      </trkpt>
      <trkpt lat="52.38746000" lon="13.33624000">
        <ele>44.000000</ele>
        <time>2010-04-28T20:06:49Z</time>
      </trkpt>
      <trkpt lat="52.38783000" lon="13.33651000">
        <ele>43.000000</ele>
        <time>2010-04-28T20:07:06Z</time>
      </trkpt>
      <trkpt lat="52.38828000" lon="13.33693000">
        <ele>42.000000</ele>
        <time>2010-04-28T20:07:26Z</time>
      </trkpt>
      <trkpt lat="52.38903000" lon="13.33789000">
        <ele>44.000000</ele>
        <time>2010-04-28T20:08:04Z</time>
      </trkpt>
      <trkpt lat="52.38968000" lon="13.33890000">
        <ele>44.000000</ele>
        <time>2010-04-28T20:08:40Z</time>
      </trkpt>
      <trkpt lat="52.39025000" lon="13.33964000">
        <ele>46.000000</ele>
        <time>2010-04-28T20:09:09Z</time>
      </trkpt>
      <trkpt lat="52.39067000" lon="13.34026000">
        <ele>46.000000</ele>
        <time>2010-04-28T20:09:32Z</time>
      </trkpt>
      <trkpt lat="52.39187000" lon="13.34211000">
        <ele>45.000000</ele>
        <time>2010-04-28T20:10:38Z</time>
      </trkpt>
      <trkpt lat="52.39426000" lon="13.34555000">
        <ele>45.000000</ele>
        <time>2010-04-28T20:12:45Z</time>
      </trkpt>
      <trkpt lat="52.39470000" lon="13.34602000">
        <ele>46.000000</ele>
        <time>2010-04-28T20:13:06Z</time>
      </trkpt>
      <trkpt lat="52.39513000" lon="13.34636000">
        <ele>45.000000</ele>
        <time>2010-04-28T20:13:25Z</time>
      </trkpt>
      <trkpt lat="52.39616000" lon="13.34682000">
        <ele>43.000000</ele>
        <time>2010-04-28T20:14:08Z</time>
      </trkpt>
      <trkpt lat="52.39673000" lon="13.34713000">
        <ele>45.000000</ele>
        <time>2010-04-28T20:14:32Z</time>
      </trkpt>
      <trkpt lat="52.39704000" lon="13.34740000">
        <ele>45.000000</ele>
        <time>2010-04-28T20:14:46Z</time>
      </trkpt>
      <trkpt lat="52.39786000" lon="13.34836000">
        <ele>44.000000</ele>
        <time>2010-04-28T20:15:27Z</time>
      </trkpt>
      <trkpt lat="52.39970000" lon="13.35033000">
        <ele>44.000000</ele>
        <time>2010-04-28T20:16:55Z</time>
      </trkpt>
      <trkpt lat="52.40071030" lon="13.35140340">
        <ele>43.000000</ele>
        <time>2010-04-28T20:17:43Z</time>
      </trkpt>
      <trkpt lat="52.40088710" lon="13.35159650">
        <ele>43.000000</ele>
        <time>2010-04-28T20:17:51Z</time>
      </trkpt>
      <trkpt lat="52.40479490" lon="13.35575930">
        <ele>44.000000</ele>
        <time>2010-04-28T20:20:58Z</time>
      </trkpt>
      <trkpt lat="52.40565890" lon="13.35664980">
        <ele>42.000000</ele>
        <time>2010-04-28T20:21:39Z</time>
      </trkpt>
      <trkpt lat="52.40857800" lon="13.35893510">
        <ele>47.000000</ele>
        <time>2010-04-28T20:23:48Z</time>
      </trkpt>
      <trkpt lat="52.41022070" lon="13.36021180">
        <ele>49.000000</ele>
        <time>2010-04-28T20:25:01Z</time>
      </trkpt>
      <trkpt lat="52.41057000" lon="13.36042000">
        <ele>47.000000</ele>
        <time>2010-04-28T20:25:16Z</time>
      </trkpt>
      <trkpt lat="52.41061990" lon="13.36046120">
        <ele>47.000000</ele>
        <time>2010-04-28T20:25:18Z</time>
      </trkpt>
      <trkpt lat="52.41066900" lon="13.36057660">
        <ele>47.000000</ele>
        <time>2010-04-28T20:25:22Z</time>
      </trkpt>
      <trkpt lat="52.41077700" lon="13.36063290">
        <ele>47.000000</ele>
        <time>2010-04-28T20:25:26Z</time>
      </trkpt>
      <trkpt lat="52.41097990" lon="13.36076970">
        <ele>47.000000</ele>
        <time>2010-04-28T20:25:35Z</time>
      </trkpt>
      <trkpt lat="52.41119090" lon="13.36088240">
        <ele>47.000000</ele>
        <time>2010-04-28T20:25:44Z</time>
      </trkpt>
      <trkpt lat="52.41161630" lon="13.36108890">
        <ele>47.000000</ele>
        <time>2010-04-28T20:26:01Z</time>
      </trkpt>
      <trkpt lat="52.41231330" lon="13.36141340">
        <ele>44.000000</ele>
        <time>2010-04-28T20:26:30Z</time>
      </trkpt>
      <trkpt lat="52.41307080" lon="13.36169510">
        <ele>44.000000</ele>
        <time>2010-04-28T20:27:02Z</time>
      </trkpt>
      <trkpt lat="52.41370230" lon="13.36192300">
        <ele>44.000000</ele>
        <time>2010-04-28T20:27:27Z</time>
      </trkpt>
      <trkpt lat="52.41392150" lon="13.36195260">
        <ele>45.000000</ele>
        <time>2010-04-28T20:27:36Z</time>
      </trkpt>
      <trkpt lat="52.41414240" lon="13.36195520">
        <ele>45.000000</ele>
        <time>2010-04-28T20:27:45Z</time>
      </trkpt>
      <trkpt lat="52.41420460" lon="13.36195520">
        <ele>45.000000</ele>
        <time>2010-04-28T20:27:48Z</time>
      </trkpt>
      <trkpt lat="52.41429130" lon="13.36191770">
        <ele>45.000000</ele>
        <time>2010-04-28T20:27:51Z</time>
      </trkpt>
      <trkpt lat="52.41436820" lon="13.36189890">
        <ele>45.000000</ele>
        <time>2010-04-28T20:27:54Z</time>
      </trkpt>
      <trkpt lat="52.41458900" lon="13.36190160">
        <ele>45.000000</ele>
        <time>2010-04-28T20:28:03Z</time>
      </trkpt>
      <trkpt lat="52.41522000" lon="13.36183000">
        <ele>45.000000</ele>
        <time>2010-04-28T20:28:28Z</time>
      </trkpt>
      <trkpt lat="52.41553000" lon="13.36172000">
        <ele>43.000000</ele>
        <time>2010-04-28T20:28:41Z</time>
      </trkpt>
      <trkpt lat="52.41788000" lon="13.36042000">
        <ele>43.000000</ele>
        <time>2010-04-28T20:30:20Z</time>
      </trkpt>
      <trkpt lat="52.41986000" lon="13.35909000">
        <ele>44.000000</ele>
        <time>2010-04-28T20:31:46Z</time>
      </trkpt>
      <trkpt lat="52.42020010" lon="13.35880630">
        <ele>44.000000</ele>
        <time>2010-04-28T20:32:01Z</time>
      </trkpt>
      <trkpt lat="52.42345850" lon="13.35718630">
        <ele>44.000000</ele>
        <time>2010-04-28T20:34:18Z</time>
      </trkpt>
      <trkpt lat="52.42768490" lon="13.35511560">
        <ele>47.000000</ele>
        <time>2010-04-28T20:37:14Z</time>
      </trkpt>
      <trkpt lat="52.42793350" lon="13.35500830">
        <ele>47.000000</ele>
        <time>2010-04-28T20:37:25Z</time>
      </trkpt>
      <trkpt lat="52.43325180" lon="13.35297520">
        <ele>41.000000</ele>
        <time>2010-04-28T20:41:03Z</time>
      </trkpt>
      <trkpt lat="52.43323540" lon="13.35276060">
        <ele>42.000000</ele>
        <time>2010-04-28T20:41:08Z</time>
      </trkpt>
      <trkpt lat="52.43325180" lon="13.35253530">
        <ele>42.000000</ele>
        <time>2010-04-28T20:41:14Z</time>
      </trkpt>
      <trkpt lat="52.43328780" lon="13.35228860">
        <ele>42.000000</ele>
        <time>2010-04-28T20:41:20Z</time>
      </trkpt>
      <trkpt lat="52.43339900" lon="13.35211150">
        <ele>42.000000</ele>
        <time>2010-04-28T20:41:26Z</time>
      </trkpt>
      <trkpt lat="52.43348000" lon="13.35187000">
        <ele>43.000000</ele>
        <time>2010-04-28T20:41:33Z</time>
      </trkpt>
      <trkpt lat="52.43555000" lon="13.34711000">
        <ele>42.000000</ele>
        <time>2010-04-28T20:43:56Z</time>
      </trkpt>
      <trkpt lat="52.43624000" lon="13.34581000">
        <ele>43.000000</ele>
        <time>2010-04-28T20:44:38Z</time>
      </trkpt>
      <trkpt lat="52.43783000" lon="13.34838000">
        <ele>44.000000</ele>
        <time>2010-04-28T20:46:07Z</time>
      </trkpt>
      <trkpt lat="52.43916000" lon="13.35046000">
        <ele>45.000000</ele>
        <time>2010-04-28T20:47:21Z</time>
      </trkpt>
      <trkpt lat="52.44018000" lon="13.35160000">
        <ele>42.000000</ele>
        <time>2010-04-28T20:48:10Z</time>
      </trkpt>
      <trkpt lat="52.44041000" lon="13.35183000">
        <ele>42.000000</ele>
        <time>2010-04-28T20:48:21Z</time>
      </trkpt>
      <trkpt lat="52.44056000" lon="13.35191000">
        <ele>44.000000</ele>
        <time>2010-04-28T20:48:27Z</time>
      </trkpt>
      <trkpt lat="52.44099000" lon="13.35242000">
        <ele>43.000000</ele>
        <time>2010-04-28T20:48:48Z</time>
      </trkpt>
      <trkpt lat="52.44172000" lon="13.35356000">
        <ele>43.000000</ele>
        <time>2010-04-28T20:49:29Z</time>
      </trkpt>
      <trkpt lat="52.44210000" lon="13.35386000">
        <ele>39.000000</ele>
        <time>2010-04-28T20:49:46Z</time>
      </trkpt>
      <trkpt lat="52.44240000" lon="13.35395000">
        <ele>39.000000</ele>
        <time>2010-04-28T20:49:58Z</time>
      </trkpt>
      <trkpt lat="52.44324000" lon="13.35397000">
        <ele>37.000000</ele>
        <time>2010-04-28T20:50:32Z</time>
      </trkpt>
      <trkpt lat="52.44330000" lon="13.35403000">
        <ele>37.000000</ele>
        <time>2010-04-28T20:50:34Z</time>
      </trkpt>
      <trkpt lat="52.44379000" lon="13.35413000">
        <ele>44.000000</ele>
        <time>2010-04-28T20:50:54Z</time>
      </trkpt>
      <trkpt lat="52.44400000" lon="13.35424000">
        <ele>44.000000</ele>
        <time>2010-04-28T20:51:03Z</time>
      </trkpt>
      <trkpt lat="52.44417000" lon="13.35439000">
        <ele>44.000000</ele>
        <time>2010-04-28T20:51:11Z</time>
      </trkpt>
      <trkpt lat="52.44435000" lon="13.35464000">
        <ele>46.000000</ele>
        <time>2010-04-28T20:51:20Z</time>
      </trkpt>
      <trkpt lat="52.44453000" lon="13.35504000">
        <ele>46.000000</ele>
        <time>2010-04-28T20:51:32Z</time>
      </trkpt>
      <trkpt lat="52.44657000" lon="13.36039000">
        <ele>48.000000</ele>
        <time>2010-04-28T20:54:06Z</time>
      </trkpt>
      <trkpt lat="52.44679000" lon="13.36078000">
        <ele>47.000000</ele>
        <time>2010-04-28T20:54:19Z</time>
      </trkpt>
      <trkpt lat="52.44686000" lon="13.36084000">
        <ele>47.000000</ele>
        <time>2010-04-28T20:54:22Z</time>
      </trkpt>
      <trkpt lat="52.44739000" lon="13.36226000">
        <ele>45.000000</ele>
        <time>2010-04-28T20:55:03Z</time>
      </trkpt>
      <trkpt lat="52.44967000" lon="13.36685000">
        <ele>48.000000</ele>
        <time>2010-04-28T20:57:27Z</time>
      </trkpt>
      <trkpt lat="52.45096000" lon="13.36932000">
        <ele>46.000000</ele>
        <time>2010-04-28T20:58:47Z</time>
      </trkpt>
      <trkpt lat="52.45346000" lon="13.37274000">
        <ele>48.000000</ele>
        <time>2010-04-28T21:00:57Z</time>
      </trkpt>
      <trkpt lat="52.45488000" lon="13.37456000">
        <ele>47.000000</ele>
        <time>2010-04-28T21:02:09Z</time>
      </trkpt>
      <trkpt lat="52.45543000" lon="13.37574000">
        <ele>48.000000</ele>
        <time>2010-04-28T21:02:45Z</time>
      </trkpt>
      <trkpt lat="52.45582000" lon="13.37640000">
        <ele>50.000000</ele>
        <time>2010-04-28T21:03:08Z</time>
      </trkpt>
      <trkpt lat="52.45588000" lon="13.37645000">
        <ele>50.000000</ele>
        <time>2010-04-28T21:03:11Z</time>
      </trkpt>
      <trkpt lat="52.45611000" lon="13.37713000">
        <ele>52.000000</ele>
        <time>2010-04-28T21:03:30Z</time>
      </trkpt>
      <trkpt lat="52.45623000" lon="13.37756000">
        <ele>52.000000</ele>
        <time>2010-04-28T21:03:41Z</time>
      </trkpt>
      <trkpt lat="52.45623000" lon="13.37772000">
        <ele>52.000000</ele>
        <time>2010-04-28T21:03:45Z</time>
      </trkpt>
      <trkpt lat="52.45576000" lon="13.38354000">
        <ele>44.000000</ele>
        <time>2010-04-28T21:06:08Z</time>
      </trkpt>
      <trkpt lat="52.45578000" lon="13.38403000">
        <ele>42.000000</ele>
        <time>2010-04-28T21:06:20Z</time>
      </trkpt>
      <trkpt lat="52.45647000" lon="13.38396000">
        <ele>45.000000</ele>
        <time>2010-04-28T21:06:48Z</time>
      </trkpt>
      <trkpt lat="52.45701000" lon="13.38400000">
        <ele>45.000000</ele>
        <time>2010-04-28T21:07:09Z</time>
      </trkpt>
      <trkpt lat="52.45733000" lon="13.38408000">
        <ele>48.000000</ele>
        <time>2010-04-28T21:07:22Z</time>
      </trkpt>
      <trkpt lat="52.46085000" lon="13.38495000">
        <ele>50.000000</ele>
        <time>2010-04-28T21:09:45Z</time>
      </trkpt>
      <trkpt lat="52.46392000" lon="13.38562000">
        <ele>46.000000</ele>
        <time>2010-04-28T21:11:49Z</time>
      </trkpt>
      <trkpt lat="52.46431000" lon="13.38566000">
        <ele>46.000000</ele>
        <time>2010-04-28T21:12:05Z</time>
      </trkpt>
      <trkpt lat="52.46927000" lon="13.38571000">
        <ele>48.000000</ele>
        <time>2010-04-28T21:15:23Z</time>
      </trkpt>
      <trkpt lat="52.47605630" lon="13.38593950">
        <ele>46.000000</ele>
        <time>2010-04-28T21:19:55Z</time>
      </trkpt>
      <trkpt lat="52.47616740" lon="13.38833210">
        <ele>44.000000</ele>
        <time>2010-04-28T21:20:53Z</time>
      </trkpt>
      <trkpt lat="52.47621320" lon="13.38853590">
        <ele>44.000000</ele>
        <time>2010-04-28T21:20:59Z</time>
      </trkpt>
      <trkpt lat="52.47691890" lon="13.38851450">
        <ele>44.000000</ele>
        <time>2010-04-28T21:21:27Z</time>
      </trkpt>
      <trkpt lat="52.47704960" lon="13.38866470">
        <ele>44.000000</ele>
        <time>2010-04-28T21:21:33Z</time>
      </trkpt>
      <trkpt lat="52.47716070" lon="13.38887920">
        <ele>53.000000</ele>
        <time>2010-04-28T21:21:40Z</time>
      </trkpt>
      <trkpt lat="52.47719990" lon="13.38996290">
        <time>2010-04-28T21:22:07Z</time>
      </trkpt>
      <trkpt lat="52.47723260" lon="13.39098210">
        <time>2010-04-28T21:22:31Z</time>
      </trkpt>
      <trkpt lat="52.47714110" lon="13.39115380">
        <time>2010-04-28T21:22:37Z</time>
      </trkpt>
      <trkpt lat="52.47701690" lon="13.39115380">
        <time>2010-04-28T21:22:42Z</time>
      </trkpt>
      <trkpt lat="52.47578840" lon="13.39029550">
        <time>2010-04-28T21:23:35Z</time>
      </trkpt>
      <trkpt lat="52.47517410" lon="13.38990920">
        <time>2010-04-28T21:24:02Z</time>
      </trkpt>
      <trkpt lat="52.47465780" lon="13.38984480">
        <time>2010-04-28T21:24:23Z</time>
      </trkpt>
      <trkpt lat="52.47446180" lon="13.39001650">
        <time>2010-04-28T21:24:31Z</time>
      </trkpt>
      <trkpt lat="52.47436380" lon="13.39031690">
        <time>2010-04-28T21:24:40Z</time>
      </trkpt>
      <trkpt lat="52.47472970" lon="13.39817040">
        <ele>48.000000</ele>
        <time>2010-04-28T21:27:52Z</time>
      </trkpt>
      <trkpt lat="52.47506950" lon="13.40555190">
        <ele>48.000000</ele>
        <time>2010-04-28T21:30:52Z</time>
      </trkpt>
      <trkpt lat="52.47525250" lon="13.40971460">
        <ele>46.000000</ele>
        <time>2010-04-28T21:32:34Z</time>
      </trkpt>
      <trkpt lat="52.47548120" lon="13.41537950">
        <time>2010-04-28T21:34:52Z</time>
      </trkpt>
      <trkpt lat="52.47560540" lon="13.41565840">
        <time>2010-04-28T21:35:01Z</time>
      </trkpt>
      <trkpt lat="52.47569690" lon="13.41576570">
        <time>2010-04-28T21:35:05Z</time>
      </trkpt>
      <trkpt lat="52.47582760" lon="13.41577640">
        <time>2010-04-28T21:35:11Z</time>
      </trkpt>
      <trkpt lat="52.47635690" lon="13.41569060">
        <ele>43.000000</ele>
        <time>2010-04-28T21:35:32Z</time>
      </trkpt>
      <trkpt lat="52.47649420" lon="13.41561550">
        <ele>43.000000</ele>
        <time>2010-04-28T21:35:38Z</time>
      </trkpt>
      <trkpt lat="52.47657260" lon="13.41542240">
        <ele>43.000000</ele>
        <time>2010-04-28T21:35:43Z</time>
      </trkpt>
      <trkpt lat="52.47661830" lon="13.41461770">
        <ele>47.000000</ele>
        <time>2010-04-28T21:36:03Z</time>
      </trkpt>
      <trkpt lat="52.47696470" lon="13.41243980">
        <time>2010-04-28T21:36:58Z</time>
      </trkpt>
      <trkpt lat="52.47752010" lon="13.41073390">
        <time>2010-04-28T21:37:45Z</time>
      </trkpt>
      <trkpt lat="52.47938240" lon="13.40721480">
        <ele>46.000000</ele>
        <time>2010-04-28T21:39:39Z</time>
      </trkpt>
      <trkpt lat="52.48013390" lon="13.40580940">
        <ele>42.000000</ele>
        <time>2010-04-28T21:40:24Z</time>
      </trkpt>
      <trkpt lat="52.48100950" lon="13.40661400">
        <ele>48.000000</ele>
        <time>2010-04-28T21:41:05Z</time>
      </trkpt>
      <trkpt lat="52.48205490" lon="13.40716120">
        <ele>50.000000</ele>
        <time>2010-04-28T21:41:48Z</time>
      </trkpt>
      <trkpt lat="52.48241000" lon="13.40742000">
        <ele>47.000000</ele>
        <time>2010-04-28T21:42:04Z</time>
      </trkpt>
      <trkpt lat="52.48096000" lon="13.41399000">
        <ele>53.000000</ele>
        <time>2010-04-28T21:44:54Z</time>
      </trkpt>
      <trkpt lat="52.48011000" lon="13.41813000">
        <ele>52.000000</ele>
        <time>2010-04-28T21:46:41Z</time>
      </trkpt>
      <trkpt lat="52.48005000" lon="13.41881000">
        <ele>54.000000</ele>
        <time>2010-04-28T21:46:58Z</time>
      </trkpt>
      <trkpt lat="52.48008000" lon="13.41964000">
        <ele>57.000000</ele>
        <time>2010-04-28T21:47:18Z</time>
      </trkpt>
      <trkpt lat="52.48013390" lon="13.41974610">
        <ele>57.000000</ele>
        <time>2010-04-28T21:47:21Z</time>
      </trkpt>
      <trkpt lat="52.48034300" lon="13.42102280">
        <ele>56.000000</ele>
        <time>2010-04-28T21:47:54Z</time>
      </trkpt>
      <trkpt lat="52.48040180" lon="13.42158610">
        <ele>60.000000</ele>
        <time>2010-04-28T21:48:07Z</time>
      </trkpt>
      <trkpt lat="52.48058470" lon="13.42339930">
        <ele>57.000000</ele>
        <time>2010-04-28T21:48:52Z</time>
      </trkpt>
      <trkpt lat="52.48079380" lon="13.42515340">
        <ele>59.000000</ele>
        <time>2010-04-28T21:49:36Z</time>
      </trkpt>
      <trkpt lat="52.48115320" lon="13.42503010">
        <ele>59.000000</ele>
        <time>2010-04-28T21:49:51Z</time>
      </trkpt>
      <trkpt lat="52.48125000" lon="13.42493000">
        <ele>60.000000</ele>
        <time>2010-04-28T21:49:55Z</time>
      </trkpt>
      <trkpt lat="52.48148000" lon="13.42489000">
        <ele>60.000000</ele>
        <time>2010-04-28T21:50:04Z</time>
      </trkpt>
      <trkpt lat="52.48219000" lon="13.42482000">
        <ele>56.000000</ele>
        <time>2010-04-28T21:50:33Z</time>
      </trkpt>
      <trkpt lat="52.48366000" lon="13.42479000">
        <ele>56.000000</ele>
        <time>2010-04-28T21:51:32Z</time>
      </trkpt>
      <trkpt lat="52.48396000" lon="13.42472000">
        <ele>50.000000</ele>
        <time>2010-04-28T21:51:44Z</time>
      </trkpt>
      <trkpt lat="52.48545000" lon="13.42416000">
        <ele>44.000000</ele>
        <time>2010-04-28T21:52:45Z</time>
      </trkpt>
      <trkpt lat="52.48581180" lon="13.42403760">
        <ele>44.000000</ele>
        <time>2010-04-28T21:53:00Z</time>
      </trkpt>
      <trkpt lat="52.48630180" lon="13.42406980">
        <ele>43.000000</ele>
        <time>2010-04-28T21:53:19Z</time>
      </trkpt>
      <trkpt lat="52.48655660" lon="13.42406980">
        <ele>43.000000</ele>
        <time>2010-04-28T21:53:30Z</time>
      </trkpt>
      <trkpt lat="52.48775220" lon="13.42505690">
        <ele>42.000000</ele>
        <time>2010-04-28T21:54:23Z</time>
      </trkpt>
      <trkpt lat="52.48821600" lon="13.42516420">
        <ele>40.000000</ele>
        <time>2010-04-28T21:54:42Z</time>
      </trkpt>
      <trkpt lat="52.48822000" lon="13.42516000">
        <ele>40.000000</ele>
        <time>2010-04-28T21:54:42Z</time>
      </trkpt>
      <trkpt lat="52.49090000" lon="13.42349000">
        <ele>42.000000</ele>
        <time>2010-04-28T21:56:37Z</time>
      </trkpt>
      <trkpt lat="52.49512000" lon="13.42084000">
        <ele>40.000000</ele>
        <time>2010-04-28T21:59:38Z</time>
      </trkpt>
      <trkpt lat="52.49512000" lon="13.42085000">
        <ele>40.000000</ele>
        <time>2010-04-28T21:59:38Z</time>
      </trkpt>
      <trkpt lat="52.49652000" lon="13.41983000">
        <ele>40.000000</ele>
        <time>2010-04-28T22:00:39Z</time>
      </trkpt>
      <trkpt lat="52.49727000" lon="13.41936000">
        <ele>39.000000</ele>
        <time>2010-04-28T22:01:11Z</time>
      </trkpt>
      <trkpt lat="52.49880000" lon="13.41852000">
        <ele>38.000000</ele>
        <time>2010-04-28T22:02:16Z</time>
      </trkpt>
      <trkpt lat="52.49890000" lon="13.41866000">
        <ele>38.000000</ele>
        <time>2010-04-28T22:02:21Z</time>
      </trkpt>
      <trkpt lat="52.49900000" lon="13.42002000">
        <ele>41.000000</ele>
        <time>2010-04-28T22:02:55Z</time>
      </trkpt>
      <trkpt lat="52.49909000" lon="13.42620000">
        <ele>41.000000</ele>
        <time>2010-04-28T22:05:25Z</time>
      </trkpt>
      <trkpt lat="52.49930000" lon="13.42995000">
        <ele>40.000000</ele>
        <time>2010-04-28T22:06:57Z</time>
      </trkpt>
      <trkpt lat="52.49923000" lon="13.43116000">
        <ele>39.000000</ele>
        <time>2010-04-28T22:07:27Z</time>
      </trkpt>
      <trkpt lat="52.49929000" lon="13.43180000">
        <ele>37.000000</ele>
        <time>2010-04-28T22:07:42Z</time>
      </trkpt>
      <trkpt lat="52.50015000" lon="13.43764000">
        <ele>37.000000</ele>
        <time>2010-04-28T22:10:09Z</time>
      </trkpt>
      <trkpt lat="52.50052000" lon="13.44049000">
        <ele>41.000000</ele>
        <time>2010-04-28T22:11:20Z</time>
      </trkpt>
      <trkpt lat="52.50061000" lon="13.44089000">
        <ele>41.000000</ele>
        <time>2010-04-28T22:11:30Z</time>
      </trkpt>
      <trkpt lat="52.50063000" lon="13.44101000">
        <ele>41.000000</ele>
        <time>2010-04-28T22:11:33Z</time>
      </trkpt>
      <trkpt lat="52.50055000" lon="13.44131000">
        <ele>39.000000</ele>
        <time>2010-04-28T22:11:41Z</time>
      </trkpt>
      <trkpt lat="52.50055000" lon="13.44150000">
        <ele>39.000000</ele>
        <time>2010-04-28T22:11:46Z</time>
      </trkpt>
      <trkpt lat="52.50063000" lon="13.44169000">
        <ele>39.000000</ele>
        <time>2010-04-28T22:11:52Z</time>
      </trkpt>
      <trkpt lat="52.50090000" lon="13.44207000">
        <ele>39.000000</ele>
        <time>2010-04-28T22:12:06Z</time>
      </trkpt>
      <trkpt lat="52.50097000" lon="13.44227000">
        <ele>37.000000</ele>
        <time>2010-04-28T22:12:11Z</time>
      </trkpt>
      <trkpt lat="52.50101000" lon="13.44269000">
        <ele>37.000000</ele>
        <time>2010-04-28T22:12:22Z</time>
      </trkpt>
      <trkpt lat="52.50081000" lon="13.44404000">
        <ele>36.000000</ele>
        <time>2010-04-28T22:12:56Z</time>
      </trkpt>
      <trkpt lat="52.50082000" lon="13.44443000">
        <ele>36.000000</ele>
        <time>2010-04-28T22:13:05Z</time>
      </trkpt>
      <trkpt lat="52.50084000" lon="13.44455000">
        <ele>36.000000</ele>
        <time>2010-04-28T22:13:08Z</time>
      </trkpt>
      <trkpt lat="52.50091000" lon="13.44467000">
        <ele>37.000000</ele>
        <time>2010-04-28T22:13:12Z</time>
      </trkpt>
      <trkpt lat="52.50104000" lon="13.44476000">
        <ele>37.000000</ele>
        <time>2010-04-28T22:13:18Z</time>
      </trkpt>
      <trkpt lat="52.50117000" lon="13.44494000">
        <ele>37.000000</ele>
        <time>2010-04-28T22:13:25Z</time>
      </trkpt>
      <trkpt lat="52.50238390" lon="13.44645020">
        <ele>31.000000</ele>
        <time>2010-04-28T22:14:26Z</time>
      </trkpt>
      <trkpt lat="52.50271860" lon="13.44651720">
        <ele>31.000000</ele>
        <time>2010-04-28T22:14:39Z</time>
      </trkpt>
      <trkpt lat="52.50311540" lon="13.44520560">
        <ele>34.000000</ele>
        <time>2010-04-28T22:15:15Z</time>
      </trkpt>
      <trkpt lat="52.50358560" lon="13.44391820">
        <ele>32.000000</ele>
        <time>2010-04-28T22:15:51Z</time>
      </trkpt>
      <trkpt lat="52.50469580" lon="13.44071030">
        <ele>35.000000</ele>
        <time>2010-04-28T22:17:21Z</time>
      </trkpt>
      <trkpt lat="52.50512030" lon="13.43966960">
        <ele>32.000000</ele>
        <time>2010-04-28T22:17:52Z</time>
      </trkpt>
      <trkpt lat="52.50556440" lon="13.43871470">
        <ele>30.000000</ele>
        <time>2010-04-28T22:18:21Z</time>
      </trkpt>
      <trkpt lat="52.50623050" lon="13.43767400">
        <ele>30.000000</ele>
        <time>2010-04-28T22:18:58Z</time>
      </trkpt>
      <trkpt lat="52.50698800" lon="13.43669770">
        <ele>32.000000</ele>
        <time>2010-04-28T22:19:36Z</time>
      </trkpt>
      <trkpt lat="52.50815040" lon="13.43518490">
        <ele>39.000000</ele>
        <time>2010-04-28T22:20:36Z</time>
      </trkpt>
      <trkpt lat="52.50845070" lon="13.43465920">
        <ele>39.000000</ele>
        <time>2010-04-28T22:20:53Z</time>
      </trkpt>
      <trkpt lat="52.50994610" lon="13.43068950">
        <ele>34.000000</ele>
        <time>2010-04-28T22:22:47Z</time>
      </trkpt>
      <trkpt lat="52.51045540" lon="13.42944500">
        <ele>32.000000</ele>
        <time>2010-04-28T22:23:24Z</time>
      </trkpt>
      <trkpt lat="52.51193770" lon="13.42637650">
        <ele>34.000000</ele>
        <time>2010-04-28T22:24:59Z</time>
      </trkpt>
      <trkpt lat="52.51246000" lon="13.42552900">
        <ele>34.000000</ele>
        <time>2010-04-28T22:25:28Z</time>
      </trkpt>
      <trkpt lat="52.51333490" lon="13.42422000">
        <ele>36.000000</ele>
        <time>2010-04-28T22:26:16Z</time>
      </trkpt>
      <trkpt lat="52.51364180" lon="13.42408060">
        <ele>36.000000</ele>
        <time>2010-04-28T22:26:29Z</time>
      </trkpt>
      <trkpt lat="52.51462770" lon="13.42111940">
        <ele>37.000000</ele>
        <time>2010-04-28T22:27:51Z</time>
      </trkpt>
      <trkpt lat="52.51565280" lon="13.41824410">
        <ele>38.000000</ele>
        <time>2010-04-28T22:29:12Z</time>
      </trkpt>
      <trkpt lat="52.51706300" lon="13.41825480">
        <ele>36.000000</ele>
        <time>2010-04-28T22:30:08Z</time>
      </trkpt>
      <trkpt lat="52.51753310" lon="13.41813680">
        <ele>39.000000</ele>
        <time>2010-04-28T22:30:27Z</time>
      </trkpt>
      <trkpt lat="52.51802930" lon="13.41793290">
        <ele>40.000000</ele>
        <time>2010-04-28T22:30:48Z</time>
      </trkpt>
      <trkpt lat="52.51864950" lon="13.41754670">
        <ele>39.000000</ele>
        <time>2010-04-28T22:31:14Z</time>
      </trkpt>
      <trkpt lat="52.51928930" lon="13.41702100">
        <ele>38.000000</ele>
        <time>2010-04-28T22:31:43Z</time>
      </trkpt>
      <trkpt lat="52.52077770" lon="13.41539020">
        <ele>43.000000</ele>
        <time>2010-04-28T22:32:55Z</time>
      </trkpt>
      <trkpt lat="52.52135880" lon="13.41596960">
        <ele>39.000000</ele>
        <time>2010-04-28T22:33:22Z</time>
      </trkpt>
      <trkpt lat="52.52162640" lon="13.41628070">
        <ele>39.000000</ele>
        <time>2010-04-28T22:33:35Z</time>
      </trkpt>
      <trkpt lat="52.52199200" lon="13.41643090">
        <ele>39.000000</ele>
        <time>2010-04-28T22:33:50Z</time>
      </trkpt>
      <trkpt lat="52.52242940" lon="13.41631290">
        <ele>58.000000</ele>
        <time>2010-04-28T22:34:08Z</time>
      </trkpt>
      <trkpt lat="52.52317030" lon="13.41457480">
        <ele>43.000000</ele>
        <time>2010-04-28T22:35:00Z</time>
      </trkpt>
      <trkpt lat="52.52369740" lon="13.41335710">
        <ele>44.000000</ele>
        <time>2010-04-28T22:35:36Z</time>
      </trkpt>
      <trkpt lat="52.52416740" lon="13.41253370">
        <ele>54.000000</ele>
        <time>2010-04-28T22:36:03Z</time>
      </trkpt>
      <trkpt lat="52.52433380" lon="13.41242100">
        <ele>54.000000</ele>
        <time>2010-04-28T22:36:11Z</time>
      </trkpt>
      <trkpt lat="52.52445950" lon="13.41244780">
        <ele>54.000000</ele>
        <time>2010-04-28T22:36:16Z</time>
      </trkpt>
      <trkpt lat="52.52554960" lon="13.41385600">
        <ele>46.000000</ele>
        <time>2010-04-28T22:37:11Z</time>
      </trkpt>
      <trkpt lat="52.52614030" lon="13.41456410">
        <ele>46.000000</ele>
        <time>2010-04-28T22:37:41Z</time>
      </trkpt>
      <trkpt lat="52.52655160" lon="13.41498250">
        <ele>44.000000</ele>
        <time>2010-04-28T22:38:00Z</time>
      </trkpt>
      <trkpt lat="52.52693020" lon="13.41533660">
        <ele>44.000000</ele>
        <time>2010-04-28T22:38:17Z</time>
      </trkpt>
      <trkpt lat="52.52726630" lon="13.41477870">
        <ele>44.000000</ele>
        <time>2010-04-28T22:38:36Z</time>
      </trkpt>
      <trkpt lat="52.52746210" lon="13.41446750">
        <ele>42.000000</ele>
        <time>2010-04-28T22:38:47Z</time>
      </trkpt>
      <trkpt lat="52.52784070" lon="13.41316930">
        <ele>41.000000</ele>
        <time>2010-04-28T22:39:22Z</time>
      </trkpt>
      <trkpt lat="52.52823230" lon="13.41180680">
        <ele>44.000000</ele>
        <time>2010-04-28T22:39:59Z</time>
      </trkpt>
      <trkpt lat="52.52836290" lon="13.41120600">
        <ele>45.000000</ele>
        <time>2010-04-28T22:40:15Z</time>
      </trkpt>
      <trkpt lat="52.52851300" lon="13.41034770">
        <ele>40.000000</ele>
        <time>2010-04-28T22:40:36Z</time>
      </trkpt>
      <trkpt lat="52.52861740" lon="13.40971460">
        <ele>40.000000</ele>
        <time>2010-04-28T22:40:52Z</time>
      </trkpt>
      <trkpt lat="52.52872840" lon="13.40927480">
        <ele>37.000000</ele>
        <time>2010-04-28T22:41:04Z</time>
      </trkpt>
      <trkpt lat="52.52918530" lon="13.40679640">
        <ele>43.000000</ele>
        <time>2010-04-28T22:42:07Z</time>
      </trkpt>
      <trkpt lat="52.52940070" lon="13.40545530">
        <ele>43.000000</ele>
        <time>2010-04-28T22:42:41Z</time>
      </trkpt>
      <trkpt lat="52.52970740" lon="13.40371720">
        <ele>46.000000</ele>
        <time>2010-04-28T22:43:25Z</time>
      </trkpt>
      <trkpt lat="52.52972700" lon="13.40328810">
        <ele>46.000000</ele>
        <time>2010-04-28T22:43:35Z</time>
      </trkpt>
      <trkpt lat="52.52965520" lon="13.40147490">
        <ele>43.000000</ele>
        <time>2010-04-28T22:44:20Z</time>
      </trkpt>
      <trkpt lat="52.52959650" lon="13.40114230">
        <ele>42.000000</ele>
        <time>2010-04-28T22:44:28Z</time>
      </trkpt>
      <trkpt lat="52.52956380" lon="13.40083120">
        <ele>41.000000</ele>
        <time>2010-04-28T22:44:36Z</time>
      </trkpt>
      <trkpt lat="52.52958340" lon="13.40048780">
        <ele>41.000000</ele>
        <time>2010-04-28T22:44:44Z</time>
      </trkpt>
      <trkpt lat="52.52959000" lon="13.40049000">
        <ele>42.000000</ele>
        <time>2010-04-28T22:44:44Z</time>
      </trkpt>
      <trkpt lat="52.52944000" lon="13.39756000">
        <ele>39.000000</ele>
        <time>2010-04-28T22:45:56Z</time>
      </trkpt>
      <trkpt lat="52.52855000" lon="13.39383000">
        <ele>41.000000</ele>
        <time>2010-04-28T22:47:34Z</time>
      </trkpt>
      <trkpt lat="52.52755000" lon="13.38916000">
        <ele>42.000000</ele>
        <time>2010-04-28T22:49:34Z</time>
      </trkpt>
      <trkpt lat="52.52723000" lon="13.38756000">
        <ele>42.000000</ele>
        <time>2010-04-28T22:50:15Z</time>
      </trkpt>
      <trkpt lat="52.52715000" lon="13.38699000">
        <ele>44.000000</ele>
        <time>2010-04-28T22:50:29Z</time>
      </trkpt>
      <trkpt lat="52.52635000" lon="13.38718000">
        <ele>40.000000</ele>
        <time>2010-04-28T22:51:02Z</time>
      </trkpt>
      <trkpt lat="52.52414000" lon="13.38754000">
        <ele>40.000000</ele>
        <time>2010-04-28T22:52:31Z</time>
      </trkpt>
      <trkpt lat="52.52387000" lon="13.38758000">
        <ele>40.000000</ele>
        <time>2010-04-28T22:52:42Z</time>
      </trkpt>
      <trkpt lat="52.52321000" lon="13.38343000">
        <ele>37.000000</ele>
        <time>2010-04-28T22:54:26Z</time>
      </trkpt>
      <trkpt lat="52.52207000" lon="13.37651000">
        <ele>37.000000</ele>
        <time>2010-04-28T22:57:21Z</time>
      </trkpt>
      <trkpt lat="52.52239000" lon="13.37616000">
        <ele>29.000000</ele>
        <time>2010-04-28T22:57:36Z</time>
      </trkpt>
      <trkpt lat="52.52239000" lon="13.37615000">
        <ele>29.000000</ele>
        <time>2010-04-28T22:57:36Z</time>
      </trkpt>
      <trkpt lat="52.52272000" lon="13.37563000">
        <ele>29.000000</ele>
        <time>2010-04-28T22:57:55Z</time>
      </trkpt>
      <trkpt lat="52.52290000" lon="13.37525000">
        <ele>28.000000</ele>
        <time>2010-04-28T22:58:06Z</time>
      </trkpt>
      <trkpt lat="52.52310000" lon="13.37479000">
        <ele>31.000000</ele>
        <time>2010-04-28T22:58:20Z</time>
      </trkpt>
      <trkpt lat="52.52337000" lon="13.37395000">
        <ele>29.000000</ele>
        <time>2010-04-28T22:58:43Z</time>
      </trkpt>
      <trkpt lat="52.52352000" lon="13.37314000">
        <ele>30.000000</ele>
        <time>2010-04-28T22:59:04Z</time>
      </trkpt>
      <trkpt lat="52.52354000" lon="13.37280000">
        <ele>30.000000</ele>
        <time>2010-04-28T22:59:12Z</time>
      </trkpt>
      <trkpt lat="52.52356000" lon="13.37184000">
        <ele>28.000000</ele>
        <time>2010-04-28T22:59:36Z</time>
      </trkpt>
      <trkpt lat="52.52351000" lon="13.37157000">
        <ele>28.000000</ele>
        <time>2010-04-28T22:59:42Z</time>
      </trkpt>
      <trkpt lat="52.52320000" lon="13.37016000">
        <ele>31.000000</ele>
        <time>2010-04-28T23:00:19Z</time>
      </trkpt>
      <trkpt lat="52.52271000" lon="13.36890000">
        <ele>29.000000</ele>
        <time>2010-04-28T23:00:55Z</time>
      </trkpt>
      <trkpt lat="52.52242000" lon="13.36833000">
        <ele>32.000000</ele>
        <time>2010-04-28T23:01:13Z</time>
      </trkpt>
      <trkpt lat="52.52221000" lon="13.36808000">
        <ele>32.000000</ele>
        <time>2010-04-28T23:01:24Z</time>
      </trkpt>
      <trkpt lat="52.52227590" lon="13.36781850">
        <ele>33.000000</ele>
        <time>2010-04-28T23:01:31Z</time>
      </trkpt>
      <trkpt lat="52.52232160" lon="13.36753960">
        <ele>33.000000</ele>
        <time>2010-04-28T23:01:38Z</time>
      </trkpt>
      <trkpt lat="52.52241630" lon="13.36678860">
        <ele>34.000000</ele>
        <time>2010-04-28T23:01:56Z</time>
      </trkpt>
      <trkpt lat="52.52258600" lon="13.36545820">
        <ele>33.000000</ele>
        <time>2010-04-28T23:02:30Z</time>
      </trkpt>
      <trkpt lat="52.52274920" lon="13.36404200">
        <ele>34.000000</ele>
        <time>2010-04-28T23:03:05Z</time>
      </trkpt>
      <trkpt lat="52.52284060" lon="13.36350560">
        <ele>33.000000</ele>
        <time>2010-04-28T23:03:18Z</time>
      </trkpt>
      <trkpt lat="52.52284710" lon="13.36307640">
        <ele>33.000000</ele>
        <time>2010-04-28T23:03:29Z</time>
      </trkpt>
      <trkpt lat="52.52291890" lon="13.36245410">
        <ele>38.000000</ele>
        <time>2010-04-28T23:03:44Z</time>
      </trkpt>
      <trkpt lat="52.52316700" lon="13.36037270">
        <ele>38.000000</ele>
        <time>2010-04-28T23:04:36Z</time>
      </trkpt>
      <trkpt lat="52.52327150" lon="13.35956810">
        <ele>36.000000</ele>
        <time>2010-04-28T23:04:56Z</time>
      </trkpt>
      <trkpt lat="52.52355210" lon="13.35707900">
        <ele>37.000000</ele>
        <time>2010-04-28T23:05:57Z</time>
      </trkpt>
      <trkpt lat="52.52322580" lon="13.35688590">
        <ele>37.000000</ele>
        <time>2010-04-28T23:06:11Z</time>
      </trkpt>
      <trkpt lat="52.52290590" lon="13.35662840">
        <ele>37.000000</ele>
        <time>2010-04-28T23:06:26Z</time>
      </trkpt>
      <trkpt lat="52.51718710" lon="13.35463280">
        <ele>29.000000</ele>
        <time>2010-04-28T23:10:20Z</time>
      </trkpt>
      <trkpt lat="52.51698470" lon="13.35458990">
        <ele>34.000000</ele>
        <time>2010-04-28T23:10:28Z</time>
      </trkpt>
      <trkpt lat="52.51674310" lon="13.35435390">
        <ele>34.000000</ele>
        <time>2010-04-28T23:10:39Z</time>
      </trkpt>
      <trkpt lat="52.51658640" lon="13.35408560">
        <ele>34.000000</ele>
        <time>2010-04-28T23:10:48Z</time>
      </trkpt>
      <trkpt lat="52.51630570" lon="13.35342040">
        <ele>34.000000</ele>
        <time>2010-04-28T23:11:08Z</time>
      </trkpt>
      <trkpt lat="52.51588130" lon="13.35232610">
        <ele>39.000000</ele>
        <time>2010-04-28T23:11:39Z</time>
      </trkpt>
      <trkpt lat="52.51562020" lon="13.35178970">
        <ele>38.000000</ele>
        <time>2010-04-28T23:11:56Z</time>
      </trkpt>
      <trkpt lat="52.51535900" lon="13.35134980">
        <ele>35.000000</ele>
        <time>2010-04-28T23:12:11Z</time>
      </trkpt>
      <trkpt lat="52.51509780" lon="13.35107080">
        <ele>35.000000</ele>
        <time>2010-04-28T23:12:24Z</time>
      </trkpt>
      <trkpt lat="52.51490850" lon="13.35094210">
        <ele>35.000000</ele>
        <time>2010-04-28T23:12:32Z</time>
      </trkpt>
      <trkpt lat="52.51479750" lon="13.35109230">
        <ele>35.000000</ele>
        <time>2010-04-28T23:12:38Z</time>
      </trkpt>
      <trkpt lat="52.51470610" lon="13.35169310">
        <ele>35.000000</ele>
        <time>2010-04-28T23:12:53Z</time>
      </trkpt>
      <trkpt lat="52.51471260" lon="13.35242270">
        <ele>39.000000</ele>
        <time>2010-04-28T23:13:10Z</time>
      </trkpt>
      <trkpt lat="52.51578660" lon="13.36912210">
        <ele>30.000000</ele>
        <time>2010-04-28T23:19:59Z</time>
      </trkpt>
    </trkseg>
  </trk>
</gpx>

